Time,TemperatureF,DewpointF,PressureIn,WindDirection,WindDirectionDegrees,WindSpeedMPH,WindSpeedGustMPH,Humidity,HourlyPrecipIn,Conditions,Clouds,dailyrainin,SoftwareType,DateUTC
2013-03-07 00:00:00,24.3,19.3,30.32,North,5,0.0,0.0,81,0.00,,CLR,0.00,VWS V14.01,2013-03-07 06:00:00,
2013-03-07 00:01:00,24.3,19.3,30.32,North,5,0.0,0.0,81,0.00,,CLR,0.00,VWS V14.01,2013-03-07 06:01:00,
2013-03-07 00:02:00,24.3,19.6,30.32,North,5,0.0,0.0,82,0.00,,CLR,0.00,VWS V14.01,2013-03-07 06:02:00,
2013-03-07 00:04:00,24.3,19.6,30.32,North,5,0.0,0.0,82,0.00,,CLR,0.00,VWS V14.01,2013-03-07 06:04:00,
2013-03-07 00:05:00,24.3,19.6,30.32,North,5,0.0,0.0,82,0.00,,CLR,0.00,VWS V14.01,2013-03-07 06:05:00,
2013-03-07 00:06:00,24.3,19.6,30.32,North,5,0.0,0.0,82,0.00,,CLR,0.00,VWS V14.01,2013-03-07 06:06:00,
2013-03-07 00:07:00,24.3,19.6,30.32,North,5,0.0,0.0,82,0.00,,CLR,0.00,VWS V14.01,2013-03-07 06:07:00,
2013-03-07 00:09:00,24.3,19.6,30.32,North,5,0.0,0.0,82,0.00,,CLR,0.00,VWS V14.01,2013-03-07 06:09:00,
2013-03-07 00:10:00,24.4,19.7,30.32,North,5,0.0,0.0,82,0.00,,CLR,0.00,VWS V14.01,2013-03-07 06:10:00,
2013-03-07 00:11:00,24.4,19.7,30.32,North,5,0.0,0.0,82,0.00,,CLR,0.00,VWS V14.01,2013-03-07 06:11:00,
2013-03-07 00:12:00,24.4,19.7,30.32,North,5,0.0,0.0,82,0.00,,CLR,0.00,VWS V14.01,2013-03-07 06:12:00,
2013-03-07 00:14:00,24.4,20.0,30.32,North,5,0.0,0.0,83,0.00,,CLR,0.00,VWS V14.01,2013-03-07 06:14:00,
2013-03-07 00:16:00,24.4,20.0,30.32,North,5,0.0,0.0,83,0.00,,CLR,0.00,VWS V14.01,2013-03-07 06:16:00,
2013-03-07 00:17:00,24.4,20.0,30.32,North,5,0.0,0.0,83,0.00,,CLR,0.00,VWS V14.01,2013-03-07 06:17:00,
2013-03-07 00:19:00,24.4,20.0,30.32,North,5,0.0,0.0,83,0.00,,CLR,0.00,VWS V14.01,2013-03-07 06:19:00,
2013-03-07 00:21:00,24.6,20.2,30.32,North,5,0.0,0.0,83,0.00,,CLR,0.00,VWS V14.01,2013-03-07 06:21:00,
2013-03-07 00:22:00,24.6,20.2,30.32,North,5,0.0,0.0,83,0.00,,CLR,0.00,VWS V14.01,2013-03-07 06:22:00,
2013-03-07 00:24:00,24.6,20.2,30.32,North,5,0.0,0.0,83,0.00,,CLR,0.00,VWS V14.01,2013-03-07 06:24:00,
2013-03-07 00:26:00,24.6,20.2,30.32,North,5,0.0,0.0,83,0.00,,CLR,0.00,VWS V14.01,2013-03-07 06:26:00,
2013-03-07 00:27:00,24.7,20.3,30.32,North,5,0.0,0.0,83,0.00,,CLR,0.00,VWS V14.01,2013-03-07 06:27:00,
2013-03-07 00:29:00,24.6,20.2,30.32,North,5,0.0,0.0,83,0.00,,CLR,0.00,VWS V14.01,2013-03-07 06:29:00,
2013-03-07 00:30:00,24.9,20.8,30.33,North,5,0.0,0.0,84,0.00,,OVC041,0.00,VWS V14.01,2013-03-07 06:30:00,
2013-03-07 00:31:00,24.6,20.2,30.32,North,5,0.0,0.0,83,0.00,,CLR,0.00,VWS V14.01,2013-03-07 06:31:00,
2013-03-07 00:32:00,24.6,20.2,30.32,North,5,0.0,0.0,83,0.00,,CLR,0.00,VWS V14.01,2013-03-07 06:32:00,
2013-03-07 00:34:00,24.4,20.0,30.32,North,5,0.0,0.0,83,0.00,,CLR,0.00,VWS V14.01,2013-03-07 06:34:00,
2013-03-07 00:36:00,24.4,20.0,30.32,North,5,0.0,0.0,83,0.00,,CLR,0.00,VWS V14.01,2013-03-07 06:36:00,
2013-03-07 00:37:00,24.4,20.0,30.32,North,5,0.0,0.0,83,0.00,,CLR,0.00,VWS V14.01,2013-03-07 06:37:00,
2013-03-07 00:39:00,24.4,20.0,30.32,North,5,0.0,0.0,83,0.00,,CLR,0.00,VWS V14.01,2013-03-07 06:39:00,
2013-03-07 00:42:00,24.3,19.9,30.32,North,5,0.0,0.0,83,0.00,,CLR,0.00,VWS V14.01,2013-03-07 06:42:00,
2013-03-07 00:43:00,24.3,19.9,30.32,North,5,0.0,0.0,83,0.00,,CLR,0.00,VWS V14.01,2013-03-07 06:43:00,
2013-03-07 00:44:00,24.3,20.2,30.32,North,5,0.0,0.0,84,0.00,,CLR,0.00,VWS V14.01,2013-03-07 06:44:00,
2013-03-07 00:47:00,24.3,20.2,30.32,North,5,0.0,0.0,84,0.00,,SCT017,0.00,VWS V14.01,2013-03-07 06:47:00,
2013-03-07 00:48:00,24.3,20.2,30.32,North,5,0.0,0.0,84,0.00,,SCT017,0.00,VWS V14.01,2013-03-07 06:48:00,
2013-03-07 00:50:00,24.3,20.2,30.32,North,5,0.0,0.0,84,0.00,,SCT017,0.00,VWS V14.01,2013-03-07 06:50:00,
2013-03-07 00:52:00,24.4,20.3,30.32,North,5,0.0,0.0,84,0.00,,SCT017,0.00,VWS V14.01,2013-03-07 06:52:00,
2013-03-07 00:53:00,24.4,20.3,30.32,North,5,0.0,0.0,84,0.00,,SCT017,0.00,VWS V14.01,2013-03-07 06:53:00,
2013-03-07 00:55:00,24.6,20.5,30.32,North,5,0.0,0.0,84,0.00,,SCT017,0.00,VWS V14.01,2013-03-07 06:55:00,
2013-03-07 00:57:00,24.6,20.5,30.32,North,5,0.0,0.0,84,0.00,,SCT017,0.00,VWS V14.01,2013-03-07 06:57:00,
2013-03-07 00:58:00,24.6,20.5,30.32,North,5,0.0,0.0,84,0.00,,SCT017,0.00,VWS V14.01,2013-03-07 06:58:00,
2013-03-07 01:00:00,24.6,20.5,30.32,North,5,0.0,0.0,84,0.00,,SCT017,0.00,VWS V14.01,2013-03-07 07:00:00,
2013-03-07 01:02:00,24.7,20.6,30.32,North,5,0.0,0.0,84,0.00,,BKN017,0.00,VWS V14.01,2013-03-07 07:02:00,
2013-03-07 01:03:00,24.7,20.6,30.32,North,5,0.0,0.0,84,0.00,,BKN017,0.00,VWS V14.01,2013-03-07 07:03:00,
2013-03-07 01:05:00,24.7,20.6,30.32,North,5,0.0,0.0,84,0.00,,BKN017,0.00,VWS V14.01,2013-03-07 07:05:00,
2013-03-07 01:08:00,24.7,20.6,30.32,North,5,0.0,0.0,84,0.00,,BKN017,0.00,VWS V14.01,2013-03-07 07:08:00,
2013-03-07 01:10:00,24.7,20.6,30.32,North,5,0.0,0.0,84,0.00,,BKN017,0.00,VWS V14.01,2013-03-07 07:10:00,
2013-03-07 01:13:00,24.9,20.8,30.32,North,5,0.0,0.0,84,0.00,,BKN017,0.00,VWS V14.01,2013-03-07 07:13:00,
2013-03-07 01:15:00,24.9,20.8,30.33,North,5,0.0,0.0,84,0.00,,BKN017,0.00,VWS V14.01,2013-03-07 07:15:00,
2013-03-07 01:18:00,24.9,20.8,30.33,North,5,0.0,0.0,84,0.00,,BKN017,0.00,VWS V14.01,2013-03-07 07:18:00,
2013-03-07 01:19:00,24.9,20.8,30.33,North,5,0.0,0.0,84,0.00,,BKN017,0.00,VWS V14.01,2013-03-07 07:19:00,
2013-03-07 01:21:00,24.9,20.8,30.33,North,5,0.0,0.0,84,0.00,,BKN017,0.00,VWS V14.01,2013-03-07 07:21:00,
2013-03-07 01:23:00,24.9,20.8,30.33,North,5,0.0,0.0,84,0.00,,BKN017,0.00,VWS V14.01,2013-03-07 07:23:00,
2013-03-07 01:24:00,24.9,20.8,30.33,North,5,0.0,0.0,84,0.00,,BKN017,0.00,VWS V14.01,2013-03-07 07:24:00,
2013-03-07 01:26:00,24.9,20.8,30.33,North,5,0.0,0.0,84,0.00,,BKN017,0.00,VWS V14.01,2013-03-07 07:26:00,
2013-03-07 01:28:00,24.9,20.8,30.33,North,5,0.0,0.0,84,0.00,,BKN017,0.00,VWS V14.01,2013-03-07 07:28:00,
2013-03-07 01:29:00,24.9,20.8,30.33,North,5,0.0,0.0,84,0.00,,BKN017,0.00,VWS V14.01,2013-03-07 07:29:00,
2013-03-07 01:30:00,26.6,21.6,30.33,NNE,26,2.0,4.0,81,0.00,,OVC041,0.00,VWS V14.01,2013-03-07 07:30:00,
2013-03-07 01:31:00,24.9,20.8,30.33,North,5,0.0,0.0,84,0.00,,BKN017,0.00,VWS V14.01,2013-03-07 07:31:00,
2013-03-07 01:33:00,24.9,20.8,30.33,North,5,0.0,0.0,84,0.00,,BKN017,0.00,VWS V14.01,2013-03-07 07:33:00,
2013-03-07 01:34:00,24.9,20.8,30.33,North,5,0.0,0.0,84,0.00,,BKN017,0.00,VWS V14.01,2013-03-07 07:34:00,
2013-03-07 01:36:00,25.0,20.9,30.33,North,5,0.0,0.0,84,0.00,,BKN017,0.00,VWS V14.01,2013-03-07 07:36:00,
2013-03-07 01:39:00,25.0,20.9,30.33,North,5,0.0,0.0,84,0.00,,BKN017,0.00,VWS V14.01,2013-03-07 07:39:00,
2013-03-07 01:42:00,25.0,20.9,30.33,North,5,0.0,0.0,84,0.00,,BKN017,0.00,VWS V14.01,2013-03-07 07:42:00,
2013-03-07 01:44:00,25.2,21.0,30.33,North,5,0.0,0.0,84,0.00,,BKN017,0.00,VWS V14.01,2013-03-07 07:44:00,
2013-03-07 01:47:00,25.2,21.0,30.33,North,5,0.0,0.0,84,0.00,,CLR,0.00,VWS V14.01,2013-03-07 07:47:00,
2013-03-07 01:49:00,25.3,21.1,30.33,North,5,0.0,0.0,84,0.00,,CLR,0.00,VWS V14.01,2013-03-07 07:49:00,
2013-03-07 01:52:00,25.5,21.4,30.33,North,5,0.0,0.0,84,0.00,,CLR,0.00,VWS V14.01,2013-03-07 07:52:00,
2013-03-07 01:54:00,25.6,21.5,30.33,North,5,0.0,0.0,84,0.00,,CLR,0.00,VWS V14.01,2013-03-07 07:54:00,
2013-03-07 01:57:00,25.6,21.5,30.33,North,5,0.0,0.0,84,0.00,,CLR,0.00,VWS V14.01,2013-03-07 07:57:00,
2013-03-07 01:59:00,25.7,21.3,30.33,North,5,0.0,0.0,83,0.00,,CLR,0.00,VWS V14.01,2013-03-07 07:59:00,
2013-03-07 02:00:00,25.7,21.3,30.33,North,5,0.0,0.0,83,0.00,,CLR,0.00,VWS V14.01,2013-03-07 08:00:00,
2013-03-07 02:02:00,25.9,21.5,30.33,North,5,0.0,0.0,83,0.00,,CLR,0.00,VWS V14.01,2013-03-07 08:02:00,
2013-03-07 02:05:00,26.0,21.6,30.33,North,5,0.0,1.0,83,0.00,,CLR,0.00,VWS V14.01,2013-03-07 08:05:00,
2013-03-07 02:07:00,26.0,21.6,30.33,North,5,0.0,1.0,83,0.00,,CLR,0.00,VWS V14.01,2013-03-07 08:07:00,
2013-03-07 02:10:00,26.2,21.8,30.33,NNE,15,3.0,3.0,83,0.00,,CLR,0.00,VWS V14.01,2013-03-07 08:10:00,
2013-03-07 02:12:00,26.3,21.6,30.33,NNE,17,2.0,4.0,82,0.00,,CLR,0.00,VWS V14.01,2013-03-07 08:12:00,
2013-03-07 02:15:00,26.3,21.6,30.33,NNE,17,0.0,4.0,82,0.00,,CLR,0.00,VWS V14.01,2013-03-07 08:15:00,
2013-03-07 02:17:00,26.5,21.8,30.33,NNE,27,1.0,4.0,82,0.00,,CLR,0.00,VWS V14.01,2013-03-07 08:17:00,
2013-03-07 02:20:00,26.5,21.5,30.33,NNE,27,0.0,4.0,81,0.00,,CLR,0.00,VWS V14.01,2013-03-07 08:20:00,
2013-03-07 02:23:00,26.6,21.6,30.33,NE,40,0.0,4.0,81,0.00,,CLR,0.00,VWS V14.01,2013-03-07 08:23:00,
2013-03-07 02:26:00,26.6,21.6,30.33,NNW,343,0.0,4.0,81,0.00,,CLR,0.00,VWS V14.01,2013-03-07 08:26:00,
2013-03-07 02:28:00,26.6,21.6,30.33,NNW,343,0.0,4.0,81,0.00,,CLR,0.00,VWS V14.01,2013-03-07 08:28:00,
2013-03-07 02:30:00,25.9,20.3,30.33,NW,314,0.0,5.0,79,0.00,,OVC041,0.00,VWS V14.01,2013-03-07 08:30:00,
2013-03-07 02:31:00,26.6,21.6,30.33,NNE,26,0.0,2.0,81,0.00,,CLR,0.00,VWS V14.01,2013-03-07 08:31:00,
2013-03-07 02:33:00,26.6,21.3,30.33,NNE,13,3.0,3.0,80,0.00,,CLR,0.00,VWS V14.01,2013-03-07 08:33:00,
2013-03-07 02:36:00,26.6,21.3,30.33,NNE,19,0.0,5.0,80,0.00,,CLR,0.00,VWS V14.01,2013-03-07 08:36:00,
2013-03-07 02:38:00,26.5,21.2,30.33,NNE,19,0.0,5.0,80,0.00,,CLR,0.00,VWS V14.01,2013-03-07 08:38:00,
2013-03-07 02:41:00,26.5,21.2,30.33,NNE,19,0.0,5.0,80,0.00,,CLR,0.00,VWS V14.01,2013-03-07 08:41:00,
2013-03-07 02:43:00,26.5,21.2,30.33,NNE,19,0.0,5.0,80,0.00,,CLR,0.00,VWS V14.01,2013-03-07 08:43:00,
2013-03-07 02:46:00,26.5,21.2,30.33,NNE,19,0.0,5.0,80,0.00,,CLR,0.00,VWS V14.01,2013-03-07 08:46:00,
2013-03-07 02:48:00,26.5,21.2,30.33,NNE,19,0.0,5.0,80,0.00,,CLR,0.00,VWS V14.01,2013-03-07 08:48:00,
2013-03-07 02:51:00,26.5,20.9,30.33,NNE,19,2.0,5.0,79,0.00,,CLR,0.00,VWS V14.01,2013-03-07 08:51:00,
2013-03-07 02:53:00,26.5,20.9,30.33,NNE,19,0.0,5.0,79,0.00,,CLR,0.00,VWS V14.01,2013-03-07 08:53:00,
2013-03-07 02:56:00,26.5,20.9,30.33,North,360,0.0,5.0,79,0.00,,CLR,0.00,VWS V14.01,2013-03-07 08:56:00,
2013-03-07 02:58:00,26.5,20.9,30.33,North,355,0.0,5.0,79,0.00,,CLR,0.00,VWS V14.01,2013-03-07 08:58:00,
2013-03-07 03:00:00,25.5,20.2,30.33,NW,314,0.0,0.0,80,0.00,,OVC041,0.00,VWS V14.01,2013-03-07 09:00:00,
2013-03-07 03:02:00,26.3,20.7,30.33,NNE,14,0.0,5.0,79,0.00,,CLR,0.00,VWS V14.01,2013-03-07 09:02:00,
2013-03-07 03:03:00,26.3,20.7,30.33,NW,313,0.0,5.0,79,0.00,,CLR,0.00,VWS V14.01,2013-03-07 09:03:00,
2013-03-07 03:06:00,26.2,20.6,30.33,NW,313,0.0,5.0,79,0.00,,CLR,0.00,VWS V14.01,2013-03-07 09:06:00,
2013-03-07 03:07:00,26.2,20.6,30.33,NW,313,0.0,5.0,79,0.00,,CLR,0.00,VWS V14.01,2013-03-07 09:07:00,
2013-03-07 03:08:00,26.2,20.6,30.33,NW,313,0.0,5.0,79,0.00,,CLR,0.00,VWS V14.01,2013-03-07 09:08:00,
2013-03-07 03:12:00,26.2,20.6,30.33,NW,313,0.0,5.0,79,0.00,,CLR,0.00,VWS V14.01,2013-03-07 09:12:00,
2013-03-07 03:14:00,26.0,20.4,30.33,NW,313,0.0,5.0,79,0.00,,CLR,0.00,VWS V14.01,2013-03-07 09:14:00,
2013-03-07 03:17:00,26.0,20.4,30.33,NW,314,0.0,5.0,79,0.00,,CLR,0.00,VWS V14.01,2013-03-07 09:17:00,
2013-03-07 03:19:00,26.0,20.4,30.33,NW,314,0.0,5.0,79,0.00,,CLR,0.00,VWS V14.01,2013-03-07 09:19:00,
2013-03-07 03:22:00,26.0,20.4,30.33,NW,313,0.0,5.0,79,0.00,,CLR,0.00,VWS V14.01,2013-03-07 09:22:00,
2013-03-07 03:24:00,26.0,20.4,30.33,NW,314,0.0,5.0,79,0.00,,CLR,0.00,VWS V14.01,2013-03-07 09:24:00,
2013-03-07 03:27:00,25.9,20.3,30.33,NW,313,0.0,5.0,79,0.00,,CLR,0.00,VWS V14.01,2013-03-07 09:27:00,
2013-03-07 03:29:00,25.9,20.3,30.33,NW,314,0.0,5.0,79,0.00,,CLR,0.00,VWS V14.01,2013-03-07 09:29:00,
2013-03-07 03:30:00,25.0,20.0,30.34,NW,314,0.0,0.0,81,0.00,,OVC041,0.00,VWS V14.01,2013-03-07 09:30:00,
2013-03-07 03:32:00,25.9,20.3,30.33,NW,314,0.0,0.0,79,0.00,,CLR,0.00,VWS V14.01,2013-03-07 09:32:00,
2013-03-07 03:34:00,25.9,20.3,30.33,NW,313,0.0,0.0,79,0.00,,CLR,0.00,VWS V14.01,2013-03-07 09:34:00,
2013-03-07 03:37:00,25.7,20.1,30.33,NW,314,0.0,0.0,79,0.00,,CLR,0.00,VWS V14.01,2013-03-07 09:37:00,
2013-03-07 03:39:00,25.7,20.1,30.33,NW,314,0.0,0.0,79,0.00,,CLR,0.00,VWS V14.01,2013-03-07 09:39:00,
2013-03-07 03:42:00,25.7,20.4,30.33,NW,313,0.0,0.0,80,0.00,,CLR,0.00,VWS V14.01,2013-03-07 09:42:00,
2013-03-07 03:44:00,25.6,20.3,30.33,NW,314,0.0,0.0,80,0.00,,CLR,0.00,VWS V14.01,2013-03-07 09:44:00,
2013-03-07 03:47:00,25.6,20.3,30.33,NW,314,0.0,0.0,80,0.00,,CLR,0.00,VWS V14.01,2013-03-07 09:47:00,
2013-03-07 03:48:00,25.6,20.3,30.33,NW,314,0.0,0.0,80,0.00,,CLR,0.00,VWS V14.01,2013-03-07 09:48:00,
2013-03-07 03:49:00,25.6,20.3,30.33,NW,314,0.0,0.0,80,0.00,,CLR,0.00,VWS V14.01,2013-03-07 09:49:00,
2013-03-07 03:52:00,25.6,20.3,30.33,NW,314,0.0,0.0,80,0.00,,CLR,0.00,VWS V14.01,2013-03-07 09:52:00,
2013-03-07 03:54:00,25.6,20.3,30.33,NW,313,0.0,0.0,80,0.00,,CLR,0.00,VWS V14.01,2013-03-07 09:54:00,
2013-03-07 03:57:00,25.5,20.2,30.33,NW,314,0.0,0.0,80,0.00,,CLR,0.00,VWS V14.01,2013-03-07 09:57:00,
2013-03-07 03:58:00,25.5,20.2,30.33,NW,313,0.0,0.0,80,0.00,,CLR,0.00,VWS V14.01,2013-03-07 09:58:00,
2013-03-07 03:59:00,25.5,20.2,30.33,NW,313,0.0,0.0,80,0.00,,CLR,0.00,VWS V14.01,2013-03-07 09:59:00,
2013-03-07 04:00:00,25.3,20.6,30.35,NW,314,0.0,0.0,82,0.00,,OVC041,0.00,VWS V14.01,2013-03-07 10:00:00,
2013-03-07 04:02:00,25.5,20.2,30.33,NW,313,0.0,0.0,80,0.00,,OVC014,0.00,VWS V14.01,2013-03-07 10:02:00,
2013-03-07 04:03:00,25.5,20.2,30.33,NW,314,0.0,0.0,80,0.00,,OVC014,0.00,VWS V14.01,2013-03-07 10:03:00,
2013-03-07 04:04:00,25.5,20.2,30.33,NW,313,0.0,0.0,80,0.00,,OVC014,0.00,VWS V14.01,2013-03-07 10:04:00,
2013-03-07 04:07:00,25.5,20.5,30.33,NW,314,0.0,0.0,81,0.00,,OVC014,0.00,VWS V14.01,2013-03-07 10:07:00,
2013-03-07 04:08:00,25.5,20.5,30.33,NW,313,0.0,0.0,81,0.00,,OVC014,0.00,VWS V14.01,2013-03-07 10:08:00,
2013-03-07 04:09:00,25.3,20.3,30.33,NW,314,0.0,0.0,81,0.00,,OVC014,0.00,VWS V14.01,2013-03-07 10:09:00,
2013-03-07 04:12:00,25.3,20.3,30.33,NW,314,0.0,0.0,81,0.00,,OVC014,0.00,VWS V14.01,2013-03-07 10:12:00,
2013-03-07 04:13:00,25.3,20.3,30.33,NW,313,0.0,0.0,81,0.00,,OVC014,0.00,VWS V14.01,2013-03-07 10:13:00,
2013-03-07 04:14:00,25.3,20.3,30.34,NW,314,0.0,0.0,81,0.00,,OVC014,0.00,VWS V14.01,2013-03-07 10:14:00,
2013-03-07 04:18:00,25.2,20.2,30.34,NW,314,0.0,0.0,81,0.00,,OVC014,0.00,VWS V14.01,2013-03-07 10:18:00,
2013-03-07 04:19:00,25.2,20.2,30.34,NW,314,0.0,0.0,81,0.00,,OVC014,0.00,VWS V14.01,2013-03-07 10:19:00,
2013-03-07 04:23:00,25.2,20.2,30.34,NW,314,0.0,0.0,81,0.00,,OVC014,0.00,VWS V14.01,2013-03-07 10:23:00,
2013-03-07 04:24:00,25.2,20.2,30.34,NW,314,0.0,0.0,81,0.00,,OVC014,0.00,VWS V14.01,2013-03-07 10:24:00,
2013-03-07 04:28:00,25.0,20.0,30.34,NW,314,0.0,0.0,81,0.00,,OVC014,0.00,VWS V14.01,2013-03-07 10:28:00,
2013-03-07 04:29:00,25.0,20.0,30.34,NW,314,0.0,0.0,81,0.00,,OVC014,0.00,VWS V14.01,2013-03-07 10:29:00,
2013-03-07 04:30:00,25.6,20.9,30.34,NW,314,0.0,0.0,82,0.00,,OVC041,0.00,VWS V14.01,2013-03-07 10:30:00,
2013-03-07 04:33:00,25.0,20.0,30.34,NW,313,0.0,0.0,81,0.00,,OVC014,0.00,VWS V14.01,2013-03-07 10:33:00,
2013-03-07 04:34:00,25.0,20.0,30.34,NW,314,0.0,0.0,81,0.00,,OVC014,0.00,VWS V14.01,2013-03-07 10:34:00,
2013-03-07 04:38:00,25.0,20.0,30.34,NW,314,0.0,0.0,81,0.00,,OVC014,0.00,VWS V14.01,2013-03-07 10:38:00,
2013-03-07 04:39:00,25.0,20.0,30.34,NW,314,0.0,0.0,81,0.00,,OVC014,0.00,VWS V14.01,2013-03-07 10:39:00,
2013-03-07 04:43:00,25.0,20.3,30.34,NW,314,0.0,0.0,82,0.00,,OVC014,0.00,VWS V14.01,2013-03-07 10:43:00,
2013-03-07 04:44:00,25.0,20.3,30.35,NW,314,0.0,0.0,82,0.00,,OVC014,0.00,VWS V14.01,2013-03-07 10:44:00,
2013-03-07 04:48:00,25.2,20.5,30.35,NW,314,0.0,0.0,82,0.00,,BKN012,0.00,VWS V14.01,2013-03-07 10:48:00,
2013-03-07 04:49:00,25.2,20.5,30.35,NW,313,0.0,0.0,82,0.00,,BKN012,0.00,VWS V14.01,2013-03-07 10:49:00,
2013-03-07 04:53:00,25.3,20.6,30.35,NW,314,0.0,0.0,82,0.00,,BKN012,0.00,VWS V14.01,2013-03-07 10:53:00,
2013-03-07 04:54:00,25.3,20.6,30.35,NW,313,0.0,0.0,82,0.00,,BKN012,0.00,VWS V14.01,2013-03-07 10:54:00,
2013-03-07 04:58:00,25.3,20.6,30.35,NW,314,0.0,0.0,82,0.00,,BKN012,0.00,VWS V14.01,2013-03-07 10:58:00,
2013-03-07 04:59:00,25.3,20.6,30.35,NW,313,0.0,0.0,82,0.00,,BKN012,0.00,VWS V14.01,2013-03-07 10:59:00,
2013-03-07 05:00:00,26.2,21.5,30.35,NW,314,0.0,0.0,82,0.00,,OVC041,0.00,VWS V14.01,2013-03-07 11:00:00,
2013-03-07 05:03:00,25.5,20.8,30.35,NW,314,0.0,0.0,82,0.00,,CLR,0.00,VWS V14.01,2013-03-07 11:03:00,
2013-03-07 05:04:00,25.5,20.8,30.35,NW,314,0.0,0.0,82,0.00,,CLR,0.00,VWS V14.01,2013-03-07 11:04:00,
2013-03-07 05:08:00,25.5,20.8,30.35,NW,314,0.0,0.0,82,0.00,,CLR,0.00,VWS V14.01,2013-03-07 11:08:00,
2013-03-07 05:10:00,25.5,21.1,30.35,NW,314,0.0,0.0,83,0.00,,CLR,0.00,VWS V14.01,2013-03-07 11:10:00,
2013-03-07 05:13:00,25.5,21.1,30.35,NW,313,0.0,0.0,83,0.00,,CLR,0.00,VWS V14.01,2013-03-07 11:13:00,
2013-03-07 05:14:00,25.5,21.1,30.35,NW,314,0.0,0.0,83,0.00,,CLR,0.00,VWS V14.01,2013-03-07 11:14:00,
2013-03-07 05:15:00,25.6,21.2,30.34,NW,314,0.0,0.0,83,0.00,,CLR,0.00,VWS V14.01,2013-03-07 11:15:00,
2013-03-07 05:18:00,25.6,21.2,30.34,NW,314,0.0,0.0,83,0.00,,CLR,0.00,VWS V14.01,2013-03-07 11:18:00,
2013-03-07 05:19:00,25.6,21.2,30.34,NW,314,0.0,0.0,83,0.00,,CLR,0.00,VWS V14.01,2013-03-07 11:19:00,
2013-03-07 05:20:00,25.6,21.2,30.34,NW,314,0.0,0.0,83,0.00,,CLR,0.00,VWS V14.01,2013-03-07 11:20:00,
2013-03-07 05:23:00,25.6,20.9,30.34,NW,314,0.0,0.0,82,0.00,,CLR,0.00,VWS V14.01,2013-03-07 11:23:00,
2013-03-07 05:24:00,25.6,20.9,30.34,NW,314,0.0,0.0,82,0.00,,CLR,0.00,VWS V14.01,2013-03-07 11:24:00,
2013-03-07 05:25:00,25.6,20.9,30.34,NW,314,0.0,0.0,82,0.00,,CLR,0.00,VWS V14.01,2013-03-07 11:25:00,
2013-03-07 05:28:00,25.6,20.9,30.34,NW,314,0.0,0.0,82,0.00,,CLR,0.00,VWS V14.01,2013-03-07 11:28:00,
2013-03-07 05:29:00,25.6,20.9,30.34,NW,314,0.0,0.0,82,0.00,,CLR,0.00,VWS V14.01,2013-03-07 11:29:00,
2013-03-07 05:30:00,25.6,20.9,30.34,NW,314,0.0,0.0,82,0.00,,CLR,0.00,VWS V14.01,2013-03-07 11:30:00,
2013-03-07 05:33:00,25.6,20.9,30.34,NW,314,0.0,0.0,82,0.00,,CLR,0.00,VWS V14.01,2013-03-07 11:33:00,
2013-03-07 05:34:00,25.7,21.0,30.34,NW,314,0.0,0.0,82,0.00,,CLR,0.00,VWS V14.01,2013-03-07 11:34:00,
2013-03-07 05:35:00,25.7,21.0,30.34,NW,314,0.0,0.0,82,0.00,,CLR,0.00,VWS V14.01,2013-03-07 11:35:00,
2013-03-07 05:39:00,25.7,21.0,30.34,NW,314,0.0,0.0,82,0.00,,CLR,0.00,VWS V14.01,2013-03-07 11:39:00,
2013-03-07 05:41:00,25.7,21.0,30.34,NW,314,0.0,0.0,82,0.00,,CLR,0.00,VWS V14.01,2013-03-07 11:41:00,
2013-03-07 05:44:00,25.7,21.0,30.35,NW,314,0.0,0.0,82,0.00,,CLR,0.00,VWS V14.01,2013-03-07 11:44:00,
2013-03-07 05:46:00,25.7,21.0,30.35,NW,314,0.0,0.0,82,0.00,,CLR,0.00,VWS V14.01,2013-03-07 11:46:00,
2013-03-07 05:49:00,25.9,21.2,30.35,NW,314,0.0,0.0,82,0.00,,CLR,0.00,VWS V14.01,2013-03-07 11:49:00,
2013-03-07 05:51:00,25.9,21.2,30.35,NW,314,0.0,0.0,82,0.00,,CLR,0.00,VWS V14.01,2013-03-07 11:51:00,
2013-03-07 05:54:00,26.0,21.3,30.35,NW,314,0.0,0.0,82,0.00,,CLR,0.00,VWS V14.01,2013-03-07 11:54:00,
2013-03-07 05:56:00,26.0,21.3,30.35,NW,314,0.0,0.0,82,0.00,,CLR,0.00,VWS V14.01,2013-03-07 11:56:00,
2013-03-07 05:59:00,26.2,21.5,30.35,NW,314,0.0,0.0,82,0.00,,CLR,0.00,VWS V14.01,2013-03-07 11:59:00,
2013-03-07 06:00:00,26.9,21.3,30.36,SSE,164,0.0,0.0,79,0.00,,OVC041,0.00,VWS V14.01,2013-03-07 12:00:00,
2013-03-07 06:01:00,26.3,21.6,30.35,NW,314,0.0,0.0,82,0.00,,CLR,0.00,VWS V14.01,2013-03-07 12:01:00,
2013-03-07 06:04:00,26.3,21.6,30.35,NW,314,0.0,0.0,82,0.00,,CLR,0.00,VWS V14.01,2013-03-07 12:04:00,
2013-03-07 06:06:00,26.3,21.3,30.35,NW,314,0.0,0.0,81,0.00,,CLR,0.00,VWS V14.01,2013-03-07 12:06:00,
2013-03-07 06:09:00,26.5,21.5,30.35,NW,306,0.0,0.0,81,0.00,,CLR,0.00,VWS V14.01,2013-03-07 12:09:00,
2013-03-07 06:11:00,26.6,21.6,30.35,SW,225,0.0,0.0,81,0.00,,CLR,0.00,VWS V14.01,2013-03-07 12:11:00,
2013-03-07 06:14:00,26.6,21.6,30.35,SW,223,0.0,0.0,81,0.00,,CLR,0.00,VWS V14.01,2013-03-07 12:14:00,
2013-03-07 06:17:00,26.8,21.8,30.35,SW,223,0.0,0.0,81,0.00,,CLR,0.00,VWS V14.01,2013-03-07 12:17:00,
2013-03-07 06:20:00,26.8,21.5,30.35,SW,223,0.0,0.0,80,0.00,,CLR,0.00,VWS V14.01,2013-03-07 12:20:00,
2013-03-07 06:22:00,26.8,21.5,30.35,SW,223,0.0,0.0,80,0.00,,CLR,0.00,VWS V14.01,2013-03-07 12:22:00,
2013-03-07 06:23:00,26.8,21.5,30.35,SW,223,0.0,0.0,80,0.00,,CLR,0.00,VWS V14.01,2013-03-07 12:23:00,
2013-03-07 06:25:00,26.8,21.5,30.35,SSW,201,0.0,1.0,80,0.00,,CLR,0.00,VWS V14.01,2013-03-07 12:25:00,
2013-03-07 06:27:00,26.8,21.5,30.35,SSW,201,0.0,1.0,80,0.00,,CLR,0.00,VWS V14.01,2013-03-07 12:27:00,
2013-03-07 06:28:00,26.8,21.5,30.35,SSW,201,0.0,1.0,80,0.00,,CLR,0.00,VWS V14.01,2013-03-07 12:28:00,
2013-03-07 06:30:00,26.8,21.5,30.35,SSW,201,0.0,0.0,80,0.00,,CLR,0.00,VWS V14.01,2013-03-07 12:30:00,
2013-03-07 06:32:00,26.8,21.2,30.35,SSW,201,0.0,0.0,79,0.00,,CLR,0.00,VWS V14.01,2013-03-07 12:32:00,
2013-03-07 06:33:00,26.8,21.2,30.35,SSW,201,0.0,0.0,79,0.00,,CLR,0.00,VWS V14.01,2013-03-07 12:33:00,
2013-03-07 06:35:00,26.8,21.2,30.35,SSW,201,0.0,0.0,79,0.00,,CLR,0.00,VWS V14.01,2013-03-07 12:35:00,
2013-03-07 06:38:00,26.8,21.2,30.35,SSW,201,0.0,0.0,79,0.00,,CLR,0.00,VWS V14.01,2013-03-07 12:38:00,
2013-03-07 06:40:00,26.8,21.2,30.35,SSW,201,0.0,0.0,79,0.00,,CLR,0.00,VWS V14.01,2013-03-07 12:40:00,
2013-03-07 06:43:00,26.8,21.2,30.35,SSW,201,0.0,0.0,79,0.00,,CLR,0.00,VWS V14.01,2013-03-07 12:43:00,
2013-03-07 06:45:00,26.8,21.2,30.36,SSW,200,0.0,0.0,79,0.00,,CLR,0.00,VWS V14.01,2013-03-07 12:45:00,
2013-03-07 06:48:00,26.8,21.2,30.36,SSW,201,0.0,0.0,79,0.00,,CLR,0.00,VWS V14.01,2013-03-07 12:48:00,
2013-03-07 06:50:00,26.8,21.2,30.36,SSW,201,0.0,0.0,79,0.00,,CLR,0.00,VWS V14.01,2013-03-07 12:50:00,
2013-03-07 06:53:00,26.8,21.2,30.36,SSW,201,0.0,0.0,79,0.00,,CLR,0.00,VWS V14.01,2013-03-07 12:53:00,
2013-03-07 06:54:00,26.8,21.2,30.36,SSW,201,0.0,0.0,79,0.00,,CLR,0.00,VWS V14.01,2013-03-07 12:54:00,
2013-03-07 06:56:00,26.8,21.2,30.36,SSW,201,0.0,0.0,79,0.00,,CLR,0.00,VWS V14.01,2013-03-07 12:56:00,
2013-03-07 06:58:00,26.9,21.3,30.36,SSE,164,0.0,0.0,79,0.00,,CLR,0.00,VWS V14.01,2013-03-07 12:58:00,
2013-03-07 06:59:00,26.9,21.3,30.36,SSE,164,0.0,0.0,79,0.00,,CLR,0.00,VWS V14.01,2013-03-07 12:59:00,
2013-03-07 07:00:00,29.2,22.0,30.38,ESE,121,0.0,4.0,74,0.00,,OVC041,0.00,VWS V14.01,2013-03-07 13:00:00,
2013-03-07 07:01:00,26.9,21.3,30.36,SSE,164,0.0,0.0,79,0.00,,CLR,0.00,VWS V14.01,2013-03-07 13:01:00,
2013-03-07 07:03:00,26.9,21.3,30.36,SSE,164,0.0,0.0,79,0.00,,CLR,0.00,VWS V14.01,2013-03-07 13:03:00,
2013-03-07 07:04:00,26.9,21.3,30.36,SSE,164,0.0,0.0,79,0.00,,CLR,0.00,VWS V14.01,2013-03-07 13:04:00,
2013-03-07 07:06:00,27.1,21.5,30.36,SSE,164,0.0,0.0,79,0.00,,CLR,0.00,VWS V14.01,2013-03-07 13:06:00,
2013-03-07 07:09:00,27.1,21.5,30.36,SSE,164,0.0,0.0,79,0.00,,CLR,0.00,VWS V14.01,2013-03-07 13:09:00,
2013-03-07 07:11:00,27.1,21.5,30.36,SSE,164,0.0,0.0,79,0.00,,CLR,0.00,VWS V14.01,2013-03-07 13:11:00,
2013-03-07 07:14:00,27.2,21.6,30.35,SSE,163,0.0,0.0,79,0.00,,CLR,0.00,VWS V14.01,2013-03-07 13:14:00,
2013-03-07 07:16:00,27.4,21.5,30.35,SSE,163,0.0,0.0,78,0.00,,CLR,0.00,VWS V14.01,2013-03-07 13:16:00,
2013-03-07 07:19:00,27.4,21.5,30.35,SSE,163,0.0,0.0,78,0.00,,CLR,0.00,VWS V14.01,2013-03-07 13:19:00,
2013-03-07 07:21:00,27.5,21.5,30.35,SSE,163,0.0,0.0,78,0.00,,CLR,0.00,VWS V14.01,2013-03-07 13:21:00,
2013-03-07 07:24:00,27.7,21.8,30.35,SSE,163,0.0,0.0,78,0.00,,CLR,0.00,VWS V14.01,2013-03-07 13:24:00,
2013-03-07 07:26:00,27.8,21.9,30.35,SSE,163,0.0,0.0,78,0.00,,CLR,0.00,VWS V14.01,2013-03-07 13:26:00,
2013-03-07 07:29:00,27.8,21.9,30.36,SSE,163,0.0,0.0,78,0.00,,CLR,0.00,VWS V14.01,2013-03-07 13:29:00,
2013-03-07 07:30:00,29.7,21.8,30.38,ESE,122,3.0,6.0,72,0.00,,OVC041,0.00,VWS V14.01,2013-03-07 13:30:00,
2013-03-07 07:32:00,28.0,21.7,30.36,SE,132,0.0,4.0,77,0.00,,CLR,0.00,VWS V14.01,2013-03-07 13:32:00,
2013-03-07 07:34:00,28.1,21.8,30.36,SE,129,0.0,4.0,77,0.00,,CLR,0.00,VWS V14.01,2013-03-07 13:34:00,
2013-03-07 07:35:00,28.1,21.8,30.36,SE,129,0.0,4.0,77,0.00,,CLR,0.00,VWS V14.01,2013-03-07 13:35:00,
2013-03-07 07:37:00,28.4,22.1,30.36,SE,128,0.0,4.0,77,0.00,,CLR,0.00,VWS V14.01,2013-03-07 13:37:00,
2013-03-07 07:39:00,28.6,22.3,30.36,SE,128,0.0,4.0,77,0.00,,CLR,0.00,VWS V14.01,2013-03-07 13:39:00,
2013-03-07 07:40:00,28.6,22.3,30.36,SE,128,0.0,4.0,77,0.00,,CLR,0.00,VWS V14.01,2013-03-07 13:40:00,
2013-03-07 07:43:00,28.7,22.1,30.36,SE,126,0.0,4.0,76,0.00,,CLR,0.00,VWS V14.01,2013-03-07 13:43:00,
2013-03-07 07:44:00,28.7,22.1,30.38,SE,134,2.0,4.0,76,0.00,,CLR,0.00,VWS V14.01,2013-03-07 13:44:00,
2013-03-07 07:45:00,28.7,22.1,30.38,SE,134,0.0,4.0,76,0.00,,CLR,0.00,VWS V14.01,2013-03-07 13:45:00,
2013-03-07 07:48:00,28.9,22.0,30.38,SE,134,0.0,4.0,75,0.00,,CLR,0.00,VWS V14.01,2013-03-07 13:48:00,
2013-03-07 07:49:00,28.9,22.0,30.38,ESE,121,3.0,4.0,75,0.00,,CLR,0.00,VWS V14.01,2013-03-07 13:49:00,
2013-03-07 07:50:00,28.9,22.0,30.38,ESE,121,1.0,4.0,75,0.00,,CLR,0.00,VWS V14.01,2013-03-07 13:50:00,
2013-03-07 07:53:00,29.0,21.8,30.38,ESE,122,0.0,4.0,74,0.00,,CLR,0.00,VWS V14.01,2013-03-07 13:53:00,
2013-03-07 07:54:00,29.0,21.8,30.38,ESE,122,0.0,4.0,74,0.00,,CLR,0.00,VWS V14.01,2013-03-07 13:54:00,
2013-03-07 07:55:00,29.0,21.8,30.38,ESE,122,0.0,4.0,74,0.00,,CLR,0.00,VWS V14.01,2013-03-07 13:55:00,
2013-03-07 07:58:00,29.0,21.8,30.38,ESE,121,0.0,4.0,74,0.00,,CLR,0.00,VWS V14.01,2013-03-07 13:58:00,
2013-03-07 08:00:00,29.2,22.0,30.38,ESE,121,0.0,4.0,74,0.00,,CLR,0.00,VWS V14.01,2013-03-07 14:00:00,
2013-03-07 08:03:00,29.3,22.1,30.38,ESE,121,0.0,0.0,74,0.00,,CLR,0.00,VWS V14.01,2013-03-07 14:03:00,
2013-03-07 08:05:00,29.3,22.1,30.38,ESE,122,0.0,2.0,74,0.00,,CLR,0.00,VWS V14.01,2013-03-07 14:05:00,
2013-03-07 08:08:00,29.3,21.7,30.38,South,176,3.0,4.0,73,0.00,,CLR,0.00,VWS V14.01,2013-03-07 14:08:00,
2013-03-07 08:10:00,29.3,21.7,30.38,South,171,0.0,5.0,73,0.00,,CLR,0.00,VWS V14.01,2013-03-07 14:10:00,
2013-03-07 08:13:00,29.3,21.7,30.38,South,169,0.0,5.0,73,0.00,,CLR,0.00,VWS V14.01,2013-03-07 14:13:00,
2013-03-07 08:15:00,29.4,22.1,30.39,SE,136,0.0,5.0,74,0.00,,CLR,0.00,VWS V14.01,2013-03-07 14:15:00,
2013-03-07 08:16:00,29.4,22.1,30.39,SE,136,0.0,5.0,74,0.00,,CLR,0.00,VWS V14.01,2013-03-07 14:16:00,
2013-03-07 08:18:00,29.6,22.0,30.39,SE,138,0.0,5.0,73,0.00,,CLR,0.00,VWS V14.01,2013-03-07 14:18:00,
2013-03-07 08:20:00,29.6,22.0,30.39,SE,137,0.0,5.0,73,0.00,,CLR,0.00,VWS V14.01,2013-03-07 14:20:00,
2013-03-07 08:21:00,29.6,22.0,30.39,SE,143,1.0,5.0,73,0.00,,CLR,0.00,VWS V14.01,2013-03-07 14:21:00,
2013-03-07 08:23:00,29.6,21.7,30.39,SE,136,0.0,5.0,72,0.00,,CLR,0.00,VWS V14.01,2013-03-07 14:23:00,
2013-03-07 08:25:00,29.6,21.7,30.39,SE,126,0.0,5.0,72,0.00,,CLR,0.00,VWS V14.01,2013-03-07 14:25:00,
2013-03-07 08:26:00,29.6,21.7,30.39,SE,128,0.0,5.0,72,0.00,,CLR,0.00,VWS V14.01,2013-03-07 14:26:00,
2013-03-07 08:28:00,29.7,21.8,30.39,SE,126,0.0,5.0,72,0.00,,CLR,0.00,VWS V14.01,2013-03-07 14:28:00,
2013-03-07 08:30:00,29.6,21.7,30.38,ESE,107,3.0,3.0,72,0.00,,CLR,0.00,VWS V14.01,2013-03-07 14:30:00,
2013-03-07 08:31:00,29.6,21.7,30.38,SE,125,1.0,4.0,72,0.00,,CLR,0.00,VWS V14.01,2013-03-07 14:31:00,
2013-03-07 08:33:00,29.6,21.7,30.38,SE,143,3.0,5.0,72,0.00,,CLR,0.00,VWS V14.01,2013-03-07 14:33:00,
2013-03-07 08:35:00,29.6,21.7,30.38,SE,146,0.0,5.0,72,0.00,,CLR,0.00,VWS V14.01,2013-03-07 14:35:00,
2013-03-07 08:36:00,29.6,22.0,30.38,SE,146,0.0,5.0,73,0.00,,CLR,0.00,VWS V14.01,2013-03-07 14:36:00,
2013-03-07 08:39:00,29.7,21.8,30.38,SE,130,3.0,5.0,72,0.00,,CLR,0.00,VWS V14.01,2013-03-07 14:39:00,
2013-03-07 08:40:00,29.7,21.8,30.38,SE,132,0.0,6.0,72,0.00,,CLR,0.00,VWS V14.01,2013-03-07 14:40:00,
2013-03-07 08:42:00,29.7,21.8,30.38,SE,136,0.0,6.0,72,0.00,,CLR,0.00,VWS V14.01,2013-03-07 14:42:00,
2013-03-07 08:44:00,29.7,21.8,30.38,ESE,106,4.0,6.0,72,0.00,,CLR,0.00,VWS V14.01,2013-03-07 14:44:00,
2013-03-07 08:45:00,29.7,21.8,30.38,ESE,120,2.0,6.0,72,0.00,,CLR,0.00,VWS V14.01,2013-03-07 14:45:00,
2013-03-07 08:47:00,29.6,21.7,30.38,ESE,120,0.0,6.0,72,0.00,,CLR,0.00,VWS V14.01,2013-03-07 14:47:00,
2013-03-07 08:49:00,29.6,21.7,30.38,SSE,156,0.0,6.0,72,0.00,,CLR,0.00,VWS V14.01,2013-03-07 14:49:00,
2013-03-07 08:51:00,29.6,21.7,30.38,South,178,0.0,6.0,72,0.00,,CLR,0.00,VWS V14.01,2013-03-07 14:51:00,
2013-03-07 08:52:00,29.6,21.7,30.38,South,171,0.0,6.0,72,0.00,,CLR,0.00,VWS V14.01,2013-03-07 14:52:00,
2013-03-07 08:54:00,29.6,21.7,30.38,South,182,4.0,6.0,72,0.00,,CLR,0.00,VWS V14.01,2013-03-07 14:54:00,
2013-03-07 08:56:00,29.7,22.1,30.38,South,172,0.0,6.0,73,0.00,,CLR,0.00,VWS V14.01,2013-03-07 14:56:00,
2013-03-07 08:57:00,29.7,22.1,30.38,ESE,123,0.0,6.0,73,0.00,,CLR,0.00,VWS V14.01,2013-03-07 14:57:00,
2013-03-07 08:59:00,29.9,22.3,30.39,SE,144,5.0,6.0,73,0.00,,CLR,0.00,VWS V14.01,2013-03-07 14:59:00,
2013-03-07 09:00:00,30.6,22.0,30.40,SE,138,0.0,7.0,70,0.00,,OVC041,0.00,VWS V14.01,2013-03-07 15:00:00,
2013-03-07 09:01:00,29.9,22.0,30.39,SE,140,0.0,3.0,72,0.00,,CLR,0.00,VWS V14.01,2013-03-07 15:01:00,
2013-03-07 09:02:00,29.9,22.0,30.39,SE,140,0.0,3.0,72,0.00,,CLR,0.00,VWS V14.01,2013-03-07 15:02:00,
2013-03-07 09:05:00,29.9,22.0,30.39,SE,134,0.0,3.0,72,0.00,,CLR,0.00,VWS V14.01,2013-03-07 15:05:00,
2013-03-07 09:06:00,29.9,22.0,30.39,SE,134,0.0,3.0,72,0.00,,CLR,0.00,VWS V14.01,2013-03-07 15:06:00,
2013-03-07 09:07:00,30.0,22.1,30.39,SE,134,0.0,3.0,72,0.00,,CLR,0.00,VWS V14.01,2013-03-07 15:07:00,
2013-03-07 09:10:00,30.2,22.3,30.39,SSE,150,3.0,5.0,72,0.00,,CLR,0.00,VWS V14.01,2013-03-07 15:10:00,
2013-03-07 09:11:00,30.2,22.3,30.39,SSE,161,0.0,5.0,72,0.00,,CLR,0.00,VWS V14.01,2013-03-07 15:11:00,
2013-03-07 09:12:00,30.2,22.3,30.39,SE,144,0.0,5.0,72,0.00,,CLR,0.00,VWS V14.01,2013-03-07 15:12:00,
2013-03-07 09:15:00,30.2,22.3,30.39,SSE,166,0.0,5.0,72,0.00,,CLR,0.00,VWS V14.01,2013-03-07 15:15:00,
2013-03-07 09:16:00,30.2,22.3,30.39,SE,132,0.0,5.0,72,0.00,,CLR,0.00,VWS V14.01,2013-03-07 15:16:00,
2013-03-07 09:17:00,30.3,22.4,30.39,SE,132,0.0,5.0,72,0.00,,CLR,0.00,VWS V14.01,2013-03-07 15:17:00,
2013-03-07 09:20:00,30.3,22.0,30.39,ESE,105,0.0,5.0,71,0.00,,CLR,0.00,VWS V14.01,2013-03-07 15:20:00,
2013-03-07 09:21:00,30.3,22.0,30.39,ESE,105,0.0,5.0,71,0.00,,CLR,0.00,VWS V14.01,2013-03-07 15:21:00,
2013-03-07 09:22:00,30.3,22.0,30.39,SSE,160,0.0,5.0,71,0.00,,CLR,0.00,VWS V14.01,2013-03-07 15:22:00,
2013-03-07 09:25:00,30.3,22.4,30.39,SSE,156,0.0,5.0,72,0.00,,CLR,0.00,VWS V14.01,2013-03-07 15:25:00,
2013-03-07 09:26:00,30.5,22.6,30.39,SE,130,0.0,5.0,72,0.00,,CLR,0.00,VWS V14.01,2013-03-07 15:26:00,
2013-03-07 09:28:00,30.5,22.2,30.39,SE,134,0.0,5.0,71,0.00,,CLR,0.00,VWS V14.01,2013-03-07 15:28:00,
2013-03-07 09:30:00,30.5,22.2,30.40,SE,134,0.0,0.0,71,0.00,,CLR,0.00,VWS V14.01,2013-03-07 15:30:00,
2013-03-07 09:31:00,30.6,22.7,30.40,SE,134,0.0,0.0,72,0.00,,CLR,0.00,VWS V14.01,2013-03-07 15:31:00,
2013-03-07 09:33:00,30.5,22.2,30.40,SE,142,0.0,5.0,71,0.00,,CLR,0.00,VWS V14.01,2013-03-07 15:33:00,
2013-03-07 09:35:00,30.6,22.3,30.40,ESE,108,0.0,5.0,71,0.00,,CLR,0.00,VWS V14.01,2013-03-07 15:35:00,
2013-03-07 09:36:00,30.6,22.3,30.40,ESE,107,1.0,5.0,71,0.00,,CLR,0.00,VWS V14.01,2013-03-07 15:36:00,
2013-03-07 09:38:00,30.8,22.9,30.40,SSE,165,0.0,5.0,72,0.00,,CLR,0.00,VWS V14.01,2013-03-07 15:38:00,
2013-03-07 09:41:00,30.8,22.5,30.40,SSE,149,0.0,5.0,71,0.00,,CLR,0.00,VWS V14.01,2013-03-07 15:41:00,
2013-03-07 09:43:00,30.8,22.5,30.40,South,179,0.0,5.0,71,0.00,,CLR,0.00,VWS V14.01,2013-03-07 15:43:00,
2013-03-07 09:46:00,30.8,22.5,30.40,SE,141,7.0,7.0,71,0.00,,BKN017,0.00,VWS V14.01,2013-03-07 15:46:00,
2013-03-07 09:47:00,30.8,22.2,30.40,SE,140,4.0,7.0,70,0.00,,BKN017,0.00,VWS V14.01,2013-03-07 15:47:00,
2013-03-07 09:48:00,30.8,22.2,30.40,South,189,3.0,7.0,70,0.00,,BKN017,0.00,VWS V14.01,2013-03-07 15:48:00,
2013-03-07 09:51:00,30.8,22.2,30.40,SSW,194,4.0,7.0,70,0.00,,BKN017,0.00,VWS V14.01,2013-03-07 15:51:00,
2013-03-07 09:52:00,30.6,22.0,30.40,SSE,147,4.0,7.0,70,0.00,,BKN017,0.00,VWS V14.01,2013-03-07 15:52:00,
2013-03-07 09:54:00,30.6,22.0,30.40,South,182,0.0,7.0,70,0.00,,BKN017,0.00,VWS V14.01,2013-03-07 15:54:00,
2013-03-07 09:56:00,30.6,22.0,30.40,SSW,209,2.0,7.0,70,0.00,,BKN017,0.00,VWS V14.01,2013-03-07 15:56:00,
2013-03-07 09:57:00,30.6,22.0,30.40,South,175,0.0,7.0,70,0.00,,BKN017,0.00,VWS V14.01,2013-03-07 15:57:00,
2013-03-07 09:59:00,30.6,22.0,30.40,SE,138,0.0,7.0,70,0.00,,BKN017,0.00,VWS V14.01,2013-03-07 15:59:00,
2013-03-07 10:00:00,31.8,22.8,30.40,SE,136,0.0,6.0,69,0.01,,OVC041,0.01,VWS V14.01,2013-03-07 16:00:00,
2013-03-07 10:01:00,30.8,22.2,30.40,SE,128,0.0,5.0,70,0.00,,BKN019,0.00,VWS V14.01,2013-03-07 16:01:00,
2013-03-07 10:02:00,30.8,22.2,30.40,SSE,165,0.0,5.0,70,0.00,,BKN019,0.00,VWS V14.01,2013-03-07 16:02:00,
2013-03-07 10:04:00,30.8,22.2,30.40,SE,137,0.0,5.0,70,0.00,,BKN019,0.00,VWS V14.01,2013-03-07 16:04:00,
2013-03-07 10:06:00,30.9,22.3,30.40,SSE,157,0.0,5.0,70,0.01,,BKN019,0.01,VWS V14.01,2013-03-07 16:06:00,
2013-03-07 10:07:00,30.9,22.3,30.40,SSE,157,0.0,5.0,70,0.01,,BKN019,0.01,VWS V14.01,2013-03-07 16:07:00,
2013-03-07 10:09:00,31.1,22.5,30.40,SW,229,0.0,5.0,70,0.01,,BKN019,0.01,VWS V14.01,2013-03-07 16:09:00,
2013-03-07 10:12:00,31.1,22.5,30.40,SW,229,0.0,5.0,70,0.01,,BKN019,0.01,VWS V14.01,2013-03-07 16:12:00,
2013-03-07 10:15:00,31.1,22.1,30.40,ESE,123,0.0,6.0,69,0.01,,BKN019,0.01,VWS V14.01,2013-03-07 16:15:00,
2013-03-07 10:16:00,31.1,22.5,30.40,SE,128,0.0,6.0,70,0.01,,BKN019,0.01,VWS V14.01,2013-03-07 16:16:00,
2013-03-07 10:17:00,31.1,22.1,30.40,SE,129,0.0,6.0,69,0.01,,BKN019,0.01,VWS V14.01,2013-03-07 16:17:00,
2013-03-07 10:20:00,31.2,22.6,30.40,SE,130,0.0,6.0,70,0.01,,BKN019,0.01,VWS V14.01,2013-03-07 16:20:00,
2013-03-07 10:22:00,31.2,22.6,30.40,SE,124,0.0,6.0,70,0.01,,BKN019,0.01,VWS V14.01,2013-03-07 16:22:00,
2013-03-07 10:25:00,31.4,22.8,30.40,SE,124,0.0,6.0,70,0.01,,BKN019,0.01,VWS V14.01,2013-03-07 16:25:00,
2013-03-07 10:27:00,31.4,22.8,30.40,ESE,107,0.0,6.0,70,0.01,,BKN019,0.01,VWS V14.01,2013-03-07 16:27:00,
2013-03-07 10:30:00,31.4,22.8,30.40,ESE,110,0.0,0.0,70,0.01,,BKN019,0.01,VWS V14.01,2013-03-07 16:30:00,
2013-03-07 10:32:00,31.4,22.8,30.40,East,86,1.0,2.0,70,0.01,,BKN019,0.01,VWS V14.01,2013-03-07 16:32:00,
2013-03-07 10:35:00,31.4,22.8,30.40,ENE,61,0.0,2.0,70,0.01,,BKN019,0.01,VWS V14.01,2013-03-07 16:35:00,
2013-03-07 10:37:00,31.5,22.9,30.40,ENE,62,0.0,2.0,70,0.01,,BKN019,0.01,VWS V14.01,2013-03-07 16:37:00,
2013-03-07 10:40:00,31.7,23.0,30.40,East,81,0.0,2.0,70,0.01,,BKN019,0.01,VWS V14.01,2013-03-07 16:40:00,
2013-03-07 10:42:00,31.7,23.0,30.40,SE,128,1.0,3.0,70,0.01,,BKN019,0.01,VWS V14.01,2013-03-07 16:42:00,
2013-03-07 10:43:00,31.8,23.1,30.40,SE,128,0.0,3.0,70,0.01,,BKN019,0.01,VWS V14.01,2013-03-07 16:43:00,
2013-03-07 10:45:00,32.0,23.3,30.40,East,90,0.0,3.0,70,0.01,,BKN019,0.01,VWS V14.01,2013-03-07 16:45:00,
2013-03-07 10:47:00,32.0,23.0,30.40,East,90,0.0,3.0,69,0.01,,OVC019,0.01,VWS V14.01,2013-03-07 16:47:00,
2013-03-07 10:48:00,32.0,23.3,30.40,East,90,0.0,3.0,70,0.01,,OVC019,0.01,VWS V14.01,2013-03-07 16:48:00,
2013-03-07 10:51:00,31.8,22.8,30.40,SE,144,2.0,6.0,69,0.01,,OVC019,0.01,VWS V14.01,2013-03-07 16:51:00,
2013-03-07 10:52:00,31.7,22.4,30.40,SE,140,0.0,6.0,68,0.01,,OVC019,0.01,VWS V14.01,2013-03-07 16:52:00,
2013-03-07 10:53:00,31.7,22.7,30.40,SE,138,0.0,6.0,69,0.01,,OVC019,0.01,VWS V14.01,2013-03-07 16:53:00,
2013-03-07 10:56:00,31.7,22.7,30.40,SE,135,0.0,6.0,69,0.01,,OVC019,0.01,VWS V14.01,2013-03-07 16:56:00,
2013-03-07 10:57:00,31.7,22.7,30.40,SE,135,0.0,6.0,69,0.01,,OVC019,0.01,VWS V14.01,2013-03-07 16:57:00,
2013-03-07 10:59:00,31.8,22.8,30.40,SE,136,0.0,6.0,69,0.01,,OVC019,0.01,VWS V14.01,2013-03-07 16:59:00,
2013-03-07 11:00:00,34.5,24.3,30.37,East,100,11.0,11.0,66,0.00,,OVC041,0.01,VWS V14.01,2013-03-07 17:00:00,
2013-03-07 11:01:00,32.1,23.1,30.40,East,94,0.0,7.0,69,0.01,,OVC019,0.01,VWS V14.01,2013-03-07 17:01:00,
2013-03-07 11:02:00,32.1,23.1,30.40,SE,130,3.0,7.0,69,0.01,,OVC019,0.01,VWS V14.01,2013-03-07 17:02:00,
2013-03-07 11:04:00,32.4,23.4,30.40,SE,142,1.0,7.0,69,0.01,,OVC019,0.01,VWS V14.01,2013-03-07 17:04:00,
2013-03-07 11:06:00,32.4,23.0,30.40,SE,132,0.0,7.0,68,0.01,,OVC019,0.01,VWS V14.01,2013-03-07 17:06:00,
2013-03-07 11:08:00,32.3,22.9,30.40,SE,134,0.0,7.0,68,0.01,,OVC019,0.01,VWS V14.01,2013-03-07 17:08:00,
2013-03-07 11:09:00,32.6,23.6,30.40,SSE,167,2.0,7.0,69,0.01,,OVC019,0.01,VWS V14.01,2013-03-07 17:09:00,
2013-03-07 11:12:00,32.7,23.7,30.40,ESE,103,0.0,7.0,69,0.01,,OVC019,0.01,VWS V14.01,2013-03-07 17:12:00,
2013-03-07 11:13:00,32.8,23.8,30.40,SE,139,6.0,7.0,69,0.01,,OVC019,0.01,VWS V14.01,2013-03-07 17:13:00,
2013-03-07 11:14:00,32.7,23.3,30.40,ESE,108,0.0,7.0,68,0.01,,OVC019,0.01,VWS V14.01,2013-03-07 17:14:00,
2013-03-07 11:17:00,32.7,23.7,30.40,East,86,0.0,7.0,69,0.01,,OVC019,0.01,VWS V14.01,2013-03-07 17:17:00,
2013-03-07 11:18:00,32.6,23.2,30.40,East,80,0.0,7.0,68,0.01,,OVC019,0.01,VWS V14.01,2013-03-07 17:18:00,
2013-03-07 11:19:00,32.7,23.7,30.40,ESE,111,2.0,7.0,69,0.01,,OVC019,0.01,VWS V14.01,2013-03-07 17:19:00,
2013-03-07 11:22:00,33.0,23.6,30.40,SE,140,0.0,7.0,68,0.01,,OVC019,0.01,VWS V14.01,2013-03-07 17:22:00,
2013-03-07 11:23:00,33.0,23.6,30.40,SE,137,1.0,7.0,68,0.01,,OVC019,0.01,VWS V14.01,2013-03-07 17:23:00,
2013-03-07 11:24:00,32.8,23.1,30.40,SE,134,0.0,7.0,67,0.01,,OVC019,0.01,VWS V14.01,2013-03-07 17:24:00,
2013-03-07 11:27:00,32.8,23.4,30.40,South,174,0.0,7.0,68,0.01,,OVC019,0.01,VWS V14.01,2013-03-07 17:27:00,
2013-03-07 11:28:00,32.8,23.1,30.40,SSE,149,1.0,7.0,67,0.01,,OVC019,0.01,VWS V14.01,2013-03-07 17:28:00,
2013-03-07 11:30:00,33.1,23.7,30.39,SE,130,0.0,0.0,68,0.00,,OVC019,0.01,VWS V14.01,2013-03-07 17:30:00,
2013-03-07 11:32:00,33.4,24.3,30.39,ESE,117,2.0,7.0,69,0.00,,OVC019,0.01,VWS V14.01,2013-03-07 17:32:00,
2013-03-07 11:33:00,33.4,24.0,30.39,SE,131,2.0,7.0,68,0.00,,OVC019,0.01,VWS V14.01,2013-03-07 17:33:00,
2013-03-07 11:35:00,33.6,23.8,30.39,SSE,162,0.0,7.0,67,0.00,,OVC019,0.01,VWS V14.01,2013-03-07 17:35:00,
2013-03-07 11:37:00,33.6,23.8,30.39,SE,128,1.0,7.0,67,0.00,,OVC019,0.01,VWS V14.01,2013-03-07 17:37:00,
2013-03-07 11:38:00,33.6,23.8,30.39,SSE,155,0.0,7.0,67,0.00,,OVC019,0.01,VWS V14.01,2013-03-07 17:38:00,
2013-03-07 11:40:00,33.4,23.6,30.39,ESE,108,0.0,7.0,67,0.00,,OVC019,0.01,VWS V14.01,2013-03-07 17:40:00,
2013-03-07 11:42:00,33.3,23.5,30.39,SE,139,1.0,7.0,67,0.00,,OVC019,0.01,VWS V14.01,2013-03-07 17:42:00,
2013-03-07 11:44:00,33.1,23.7,30.38,SE,127,0.0,7.0,68,0.00,,OVC019,0.01,VWS V14.01,2013-03-07 17:44:00,
2013-03-07 11:45:00,33.3,23.9,30.38,SSE,154,1.0,7.0,68,0.00,,OVC019,0.01,VWS V14.01,2013-03-07 17:45:00,
2013-03-07 11:48:00,33.7,24.6,30.38,SE,145,0.0,7.0,69,0.00,,BKN100,0.01,VWS V14.01,2013-03-07 17:48:00,
2013-03-07 11:49:00,34.2,25.5,30.38,ESE,123,0.0,7.0,70,0.00,,BKN100,0.01,VWS V14.01,2013-03-07 17:49:00,
2013-03-07 11:50:00,34.5,25.4,30.38,ESE,107,3.0,7.0,69,0.00,,BKN100,0.01,VWS V14.01,2013-03-07 17:50:00,
2013-03-07 11:53:00,34.3,24.1,30.38,ENE,76,2.0,7.0,66,0.00,,BKN100,0.01,VWS V14.01,2013-03-07 17:53:00,
2013-03-07 11:54:00,34.2,24.0,30.38,SE,128,4.0,7.0,66,0.00,,BKN100,0.01,VWS V14.01,2013-03-07 17:54:00,
2013-03-07 11:55:00,34.3,24.9,30.38,ESE,121,1.0,7.0,68,0.00,,BKN100,0.01,VWS V14.01,2013-03-07 17:55:00,
2013-03-07 11:59:00,34.6,25.1,30.37,SE,132,4.0,7.0,68,0.00,,BKN100,0.01,VWS V14.01,2013-03-07 17:59:00,
2013-03-07 12:00:00,34.6,24.8,30.37,South,173,6.0,15.0,67,0.00,,BKN100,0.01,VWS V14.01,2013-03-07 18:00:00,
2013-03-07 12:04:00,34.8,24.6,30.37,South,183,1.0,15.0,66,0.00,,CLR,0.01,VWS V14.01,2013-03-07 18:04:00,
2013-03-07 12:05:00,34.8,24.6,30.37,East,97,3.0,15.0,66,0.00,,CLR,0.01,VWS V14.01,2013-03-07 18:05:00,
2013-03-07 12:09:00,34.9,24.3,30.37,SSE,165,0.0,15.0,65,0.00,,CLR,0.01,VWS V14.01,2013-03-07 18:09:00,
2013-03-07 12:10:00,34.6,24.1,30.37,East,101,3.0,15.0,65,0.00,,CLR,0.01,VWS V14.01,2013-03-07 18:10:00,
2013-03-07 12:14:00,34.5,24.3,30.36,SE,133,0.0,15.0,66,0.00,,CLR,0.01,VWS V14.01,2013-03-07 18:14:00,
2013-03-07 12:15:00,34.5,24.3,30.36,East,85,0.0,15.0,66,0.00,,CLR,0.01,VWS V14.01,2013-03-07 18:15:00,
2013-03-07 12:19:00,34.9,25.1,30.36,SE,137,0.0,15.0,67,0.00,,CLR,0.01,VWS V14.01,2013-03-07 18:19:00,
2013-03-07 12:21:00,35.2,25.0,30.36,SE,128,5.0,15.0,66,0.00,,CLR,0.01,VWS V14.01,2013-03-07 18:21:00,
2013-03-07 12:24:00,34.6,24.1,30.36,ESE,117,3.0,15.0,65,0.00,,CLR,0.01,VWS V14.01,2013-03-07 18:24:00,
2013-03-07 12:26:00,34.5,24.0,30.36,ESE,122,4.0,15.0,65,0.00,,CLR,0.01,VWS V14.01,2013-03-07 18:26:00,
2013-03-07 12:29:00,34.3,23.8,30.36,East,100,4.0,15.0,65,0.00,,CLR,0.01,VWS V14.01,2013-03-07 18:29:00,
2013-03-07 12:30:00,35.8,25.2,30.34,East,86,0.0,7.0,65,0.00,,OVC041,0.01,VWS V14.01,2013-03-07 18:30:00,
2013-03-07 12:31:00,34.5,24.3,30.36,SE,140,9.0,9.0,66,0.00,,CLR,0.01,VWS V14.01,2013-03-07 18:31:00,
2013-03-07 12:34:00,34.3,24.1,30.36,ESE,102,4.0,9.0,66,0.00,,CLR,0.01,VWS V14.01,2013-03-07 18:34:00,
2013-03-07 12:36:00,34.3,24.1,30.36,ESE,107,0.0,9.0,66,0.00,,CLR,0.01,VWS V14.01,2013-03-07 18:36:00,
2013-03-07 12:39:00,34.6,24.4,30.36,NE,42,0.0,9.0,66,0.00,,CLR,0.01,VWS V14.01,2013-03-07 18:39:00,
2013-03-07 12:40:00,34.6,24.4,30.36,NE,42,0.0,9.0,66,0.00,,CLR,0.01,VWS V14.01,2013-03-07 18:40:00,
2013-03-07 12:41:00,34.9,25.4,30.36,NE,45,0.0,9.0,68,0.00,,CLR,0.01,VWS V14.01,2013-03-07 18:41:00,
2013-03-07 12:44:00,35.4,24.8,30.36,South,186,3.0,9.0,65,0.00,,CLR,0.01,VWS V14.01,2013-03-07 18:44:00,
2013-03-07 12:45:00,35.4,24.8,30.36,South,180,5.0,9.0,65,0.00,,CLR,0.01,VWS V14.01,2013-03-07 18:45:00,
2013-03-07 12:46:00,35.4,24.8,30.36,SSE,163,2.0,9.0,65,0.00,,SCT020,0.01,VWS V14.01,2013-03-07 18:46:00,
2013-03-07 12:50:00,35.8,25.2,30.36,SE,128,3.0,9.0,65,0.00,,SCT020,0.01,VWS V14.01,2013-03-07 18:50:00,
2013-03-07 12:51:00,35.7,25.1,30.36,SE,133,3.0,9.0,65,0.00,,SCT020,0.01,VWS V14.01,2013-03-07 18:51:00,
2013-03-07 12:55:00,35.4,24.8,30.36,SE,144,5.0,10.0,65,0.00,,SCT020,0.01,VWS V14.01,2013-03-07 18:55:00,
2013-03-07 12:57:00,35.2,24.6,30.36,East,86,3.0,10.0,65,0.00,,SCT020,0.01,VWS V14.01,2013-03-07 18:57:00,
2013-03-07 13:00:00,35.5,24.9,30.35,ESE,111,3.0,4.0,65,0.00,,SCT020,0.01,VWS V14.01,2013-03-07 19:00:00,
2013-03-07 13:02:00,35.5,24.9,30.35,SE,143,3.0,5.0,65,0.00,,SCT022,0.01,VWS V14.01,2013-03-07 19:02:00,
2013-03-07 13:05:00,35.4,24.8,30.35,SE,130,3.0,6.0,65,0.00,,SCT022,0.01,VWS V14.01,2013-03-07 19:05:00,
2013-03-07 13:07:00,35.2,24.6,30.35,SE,131,6.0,6.0,65,0.00,,SCT022,0.01,VWS V14.01,2013-03-07 19:07:00,
2013-03-07 13:10:00,35.4,25.5,30.35,SE,137,1.0,7.0,67,0.00,,SCT022,0.01,VWS V14.01,2013-03-07 19:10:00,
2013-03-07 13:12:00,35.7,25.5,30.35,East,93,0.0,7.0,66,0.00,,SCT022,0.01,VWS V14.01,2013-03-07 19:12:00,
2013-03-07 13:15:00,35.8,25.6,30.34,East,82,3.0,7.0,66,0.00,,SCT022,0.01,VWS V14.01,2013-03-07 19:15:00,
2013-03-07 13:17:00,36.1,25.9,30.34,SE,143,0.0,7.0,66,0.00,,SCT022,0.01,VWS V14.01,2013-03-07 19:17:00,
2013-03-07 13:21:00,36.2,25.6,30.34,SE,133,0.0,7.0,65,0.00,,SCT022,0.01,VWS V14.01,2013-03-07 19:21:00,
2013-03-07 13:22:00,36.2,25.6,30.34,ESE,112,1.0,7.0,65,0.00,,SCT022,0.01,VWS V14.01,2013-03-07 19:22:00,
2013-03-07 13:27:00,35.9,24.9,30.34,SE,131,0.0,7.0,64,0.00,,SCT022,0.01,VWS V14.01,2013-03-07 19:27:00,
2013-03-07 13:28:00,35.8,24.8,30.34,ESE,123,0.0,7.0,64,0.00,,SCT022,0.01,VWS V14.01,2013-03-07 19:28:00,
2013-03-07 13:30:00,38.1,26.6,30.33,East,81,10.0,10.0,63,0.00,,OVC041,0.01,VWS V14.01,2013-03-07 19:30:00,
2013-03-07 13:32:00,35.8,25.2,30.34,SE,126,5.0,5.0,65,0.00,,SCT022,0.01,VWS V14.01,2013-03-07 19:32:00,
2013-03-07 13:33:00,35.8,25.2,30.34,East,91,3.0,5.0,65,0.00,,SCT022,0.01,VWS V14.01,2013-03-07 19:33:00,
2013-03-07 13:37:00,35.8,25.2,30.34,SE,131,4.0,5.0,65,0.00,,SCT022,0.01,VWS V14.01,2013-03-07 19:37:00,
2013-03-07 13:38:00,35.8,25.2,30.34,SSE,152,1.0,10.0,65,0.00,,SCT022,0.01,VWS V14.01,2013-03-07 19:38:00,
2013-03-07 13:42:00,36.1,25.5,30.34,ESE,111,5.0,10.0,65,0.00,,SCT022,0.01,VWS V14.01,2013-03-07 19:42:00,
2013-03-07 13:43:00,36.1,25.5,30.34,ESE,117,1.0,10.0,65,0.00,,SCT022,0.01,VWS V14.01,2013-03-07 19:43:00,
2013-03-07 13:44:00,36.1,25.5,30.34,ESE,111,0.0,10.0,65,0.00,,SCT022,0.01,VWS V14.01,2013-03-07 19:44:00,
2013-03-07 13:47:00,36.1,25.5,30.34,East,101,0.0,10.0,65,0.00,,SCT080,0.01,VWS V14.01,2013-03-07 19:47:00,
2013-03-07 13:48:00,36.1,25.5,30.34,East,90,0.0,10.0,65,0.00,,SCT080,0.01,VWS V14.01,2013-03-07 19:48:00,
2013-03-07 13:49:00,36.1,25.5,30.34,East,88,2.0,10.0,65,0.00,,SCT080,0.01,VWS V14.01,2013-03-07 19:49:00,
2013-03-07 13:52:00,36.4,25.8,30.34,East,88,6.0,11.0,65,0.00,,SCT080,0.01,VWS V14.01,2013-03-07 19:52:00,
2013-03-07 13:53:00,36.5,25.5,30.34,East,90,2.0,11.0,64,0.00,,SCT080,0.01,VWS V14.01,2013-03-07 19:53:00,
2013-03-07 13:54:00,36.5,25.9,30.34,East,87,1.0,11.0,65,0.00,,SCT080,0.01,VWS V14.01,2013-03-07 19:54:00,
2013-03-07 13:57:00,36.8,25.8,30.34,ESE,114,5.0,11.0,64,0.00,,SCT080,0.01,VWS V14.01,2013-03-07 19:57:00,
2013-03-07 13:58:00,36.8,25.8,30.34,ESE,114,2.0,11.0,64,0.00,,SCT080,0.01,VWS V14.01,2013-03-07 19:58:00,
2013-03-07 13:59:00,36.8,25.8,30.33,SSE,165,4.0,11.0,64,0.00,,SCT080,0.01,VWS V14.01,2013-03-07 19:59:00,
2013-03-07 14:00:00,38.4,26.9,30.33,South,176,6.0,11.0,63,0.00,,OVC041,0.01,VWS V14.01,2013-03-07 20:00:00,
2013-03-07 14:02:00,37.1,25.7,30.33,ESE,112,2.0,3.0,63,0.00,,CLR,0.01,VWS V14.01,2013-03-07 20:02:00,
2013-03-07 14:03:00,37.4,26.4,30.33,SE,127,4.0,4.0,64,0.00,,CLR,0.01,VWS V14.01,2013-03-07 20:03:00,
2013-03-07 14:04:00,37.4,26.0,30.33,East,95,3.0,4.0,63,0.00,,CLR,0.01,VWS V14.01,2013-03-07 20:04:00,
2013-03-07 14:08:00,37.2,25.4,30.33,ESE,122,3.0,5.0,62,0.00,,CLR,0.01,VWS V14.01,2013-03-07 20:08:00,
2013-03-07 14:09:00,37.4,26.4,30.33,SE,134,4.0,5.0,64,0.00,,CLR,0.01,VWS V14.01,2013-03-07 20:09:00,
2013-03-07 14:13:00,37.5,26.1,30.33,ENE,63,2.0,10.0,63,0.00,,CLR,0.01,VWS V14.01,2013-03-07 20:13:00,
2013-03-07 14:14:00,37.7,26.6,30.33,ENE,63,3.0,10.0,64,0.00,,CLR,0.01,VWS V14.01,2013-03-07 20:14:00,
2013-03-07 14:18:00,37.9,26.5,30.33,ENE,74,5.0,10.0,63,0.00,,CLR,0.01,VWS V14.01,2013-03-07 20:18:00,
2013-03-07 14:19:00,38.1,27.0,30.33,ENE,71,4.0,10.0,64,0.00,,CLR,0.01,VWS V14.01,2013-03-07 20:19:00,
2013-03-07 14:23:00,37.7,25.9,30.33,ENE,71,3.0,10.0,62,0.00,,CLR,0.01,VWS V14.01,2013-03-07 20:23:00,
2013-03-07 14:24:00,37.7,25.9,30.33,ENE,72,4.0,10.0,62,0.00,,CLR,0.01,VWS V14.01,2013-03-07 20:24:00,
2013-03-07 14:29:00,37.9,26.5,30.33,ESE,112,6.0,10.0,63,0.00,,CLR,0.01,VWS V14.01,2013-03-07 20:29:00,
2013-03-07 14:30:00,38.5,26.6,30.33,SE,129,0.0,7.0,62,0.00,,OVC041,0.01,VWS V14.01,2013-03-07 20:30:00,
2013-03-07 14:34:00,37.7,26.3,30.33,East,82,2.0,11.0,63,0.00,,CLR,0.01,VWS V14.01,2013-03-07 20:34:00,
2013-03-07 14:39:00,38.1,26.6,30.33,South,184,3.0,11.0,63,0.00,,CLR,0.01,VWS V14.01,2013-03-07 20:39:00,
2013-03-07 14:44:00,38.4,26.9,30.32,East,90,4.0,11.0,63,0.00,,CLR,0.01,VWS V14.01,2013-03-07 20:44:00,
2013-03-07 14:49:00,38.1,26.2,30.32,SSE,159,4.0,11.0,62,0.00,,CLR,0.01,VWS V14.01,2013-03-07 20:49:00,
2013-03-07 14:50:00,38.1,26.6,30.32,SSE,166,4.0,11.0,63,0.00,,CLR,0.01,VWS V14.01,2013-03-07 20:50:00,
2013-03-07 14:54:00,38.1,26.6,30.32,SSE,161,1.0,11.0,63,0.00,,CLR,0.01,VWS V14.01,2013-03-07 20:54:00,
2013-03-07 14:55:00,38.1,26.6,30.32,ESE,108,0.0,11.0,63,0.00,,CLR,0.01,VWS V14.01,2013-03-07 20:55:00,
2013-03-07 14:59:00,38.4,26.9,30.33,SSE,155,3.0,11.0,63,0.00,,CLR,0.01,VWS V14.01,2013-03-07 20:59:00,
2013-03-07 15:00:00,38.4,26.9,30.33,South,174,4.0,6.0,63,0.00,,CLR,0.01,VWS V14.01,2013-03-07 21:00:00,
2013-03-07 15:04:00,38.1,26.6,30.33,SE,127,4.0,6.0,63,0.00,,SCT025,0.01,VWS V14.01,2013-03-07 21:04:00,
2013-03-07 15:05:00,38.2,26.7,30.33,SE,140,2.0,6.0,63,0.00,,SCT025,0.01,VWS V14.01,2013-03-07 21:05:00,
2013-03-07 15:09:00,38.4,27.3,30.33,SE,138,5.0,7.0,64,0.00,,SCT025,0.01,VWS V14.01,2013-03-07 21:09:00,
2013-03-07 15:11:00,38.2,26.7,30.33,SE,131,3.0,7.0,63,0.00,,SCT025,0.01,VWS V14.01,2013-03-07 21:11:00,
2013-03-07 15:14:00,38.2,26.7,30.33,ESE,105,5.0,7.0,63,0.00,,SCT025,0.01,VWS V14.01,2013-03-07 21:14:00,
2013-03-07 15:16:00,38.1,26.6,30.33,ESE,105,0.0,7.0,63,0.00,,SCT025,0.01,VWS V14.01,2013-03-07 21:16:00,
2013-03-07 15:19:00,38.2,27.1,30.33,East,84,1.0,7.0,64,0.00,,SCT025,0.01,VWS V14.01,2013-03-07 21:19:00,
2013-03-07 15:20:00,38.2,27.1,30.33,East,84,1.0,7.0,64,0.00,,SCT025,0.01,VWS V14.01,2013-03-07 21:20:00,
2013-03-07 15:21:00,38.2,27.1,30.33,East,84,0.0,7.0,64,0.00,,SCT025,0.01,VWS V14.01,2013-03-07 21:21:00,
2013-03-07 15:24:00,38.5,27.4,30.33,SE,130,4.0,7.0,64,0.00,,SCT025,0.01,VWS V14.01,2013-03-07 21:24:00,
2013-03-07 15:25:00,38.5,27.4,30.33,SE,130,1.0,7.0,64,0.00,,SCT025,0.01,VWS V14.01,2013-03-07 21:25:00,
2013-03-07 15:26:00,38.7,27.2,30.33,SE,130,1.0,7.0,63,0.00,,SCT025,0.01,VWS V14.01,2013-03-07 21:26:00,
2013-03-07 15:30:00,38.5,26.6,30.33,SE,129,0.0,0.0,62,0.00,,SCT025,0.01,VWS V14.01,2013-03-07 21:30:00,
2013-03-07 15:31:00,38.5,27.0,30.33,East,79,0.0,1.0,63,0.00,,CLR,0.01,VWS V14.01,2013-03-07 21:31:00,
2013-03-07 15:35:00,38.4,26.9,30.33,East,80,0.0,4.0,63,0.00,,CLR,0.01,VWS V14.01,2013-03-07 21:35:00,
2013-03-07 15:36:00,38.4,26.9,30.33,East,80,0.0,4.0,63,0.00,,CLR,0.01,VWS V14.01,2013-03-07 21:36:00,
2013-03-07 15:40:00,38.5,27.0,30.33,SE,132,3.0,7.0,63,0.00,,CLR,0.01,VWS V14.01,2013-03-07 21:40:00,
2013-03-07 15:41:00,38.7,27.2,30.33,ESE,115,0.0,7.0,63,0.00,,CLR,0.01,VWS V14.01,2013-03-07 21:41:00,
2013-03-07 15:45:00,38.4,26.5,30.33,ESE,117,2.0,7.0,62,0.00,,CLR,0.01,VWS V14.01,2013-03-07 21:45:00,
2013-03-07 15:46:00,38.4,26.9,30.33,ESE,119,1.0,7.0,63,0.00,,CLR,0.01,VWS V14.01,2013-03-07 21:46:00,
2013-03-07 15:50:00,38.2,27.1,30.33,SE,128,0.0,7.0,64,0.00,,CLR,0.01,VWS V14.01,2013-03-07 21:50:00,
2013-03-07 15:51:00,38.2,27.1,30.33,East,88,2.0,7.0,64,0.00,,CLR,0.01,VWS V14.01,2013-03-07 21:51:00,
2013-03-07 15:55:00,38.2,27.1,30.33,East,88,0.0,7.0,64,0.00,,CLR,0.01,VWS V14.01,2013-03-07 21:55:00,
2013-03-07 15:56:00,38.2,27.1,30.33,East,88,0.0,7.0,64,0.00,,CLR,0.01,VWS V14.01,2013-03-07 21:56:00,
2013-03-07 16:00:00,38.2,27.1,30.32,ESE,104,3.0,9.0,64,0.00,,CLR,0.01,VWS V14.01,2013-03-07 22:00:00,
2013-03-07 16:01:00,38.4,27.7,30.32,ESE,107,0.0,3.0,65,0.00,,CLR,0.01,VWS V14.01,2013-03-07 22:01:00,
2013-03-07 16:05:00,38.5,27.4,30.32,South,176,0.0,5.0,64,0.00,,CLR,0.01,VWS V14.01,2013-03-07 22:05:00,
2013-03-07 16:06:00,38.5,27.4,30.32,South,176,0.0,5.0,64,0.00,,CLR,0.01,VWS V14.01,2013-03-07 22:06:00,
2013-03-07 16:10:00,38.5,27.4,30.32,SSE,150,0.0,5.0,64,0.00,,CLR,0.01,VWS V14.01,2013-03-07 22:10:00,
2013-03-07 16:11:00,38.5,27.4,30.32,SE,139,0.0,5.0,64,0.00,,CLR,0.01,VWS V14.01,2013-03-07 22:11:00,
2013-03-07 16:15:00,38.7,28.0,30.33,SE,143,0.0,5.0,65,0.00,,CLR,0.01,VWS V14.01,2013-03-07 22:15:00,
2013-03-07 16:17:00,38.7,27.6,30.33,SE,143,0.0,5.0,64,0.00,,CLR,0.01,VWS V14.01,2013-03-07 22:17:00,
2013-03-07 16:20:00,39.0,28.2,30.33,East,86,4.0,6.0,65,0.00,,CLR,0.01,VWS V14.01,2013-03-07 22:20:00,
2013-03-07 16:21:00,39.0,27.9,30.33,East,86,3.0,6.0,64,0.00,,CLR,0.01,VWS V14.01,2013-03-07 22:21:00,
2013-03-07 16:22:00,39.0,27.9,30.33,East,86,0.0,6.0,64,0.00,,CLR,0.01,VWS V14.01,2013-03-07 22:22:00,
2013-03-07 16:25:00,38.8,27.7,30.33,ESE,110,1.0,6.0,64,0.00,,CLR,0.01,VWS V14.01,2013-03-07 22:25:00,
2013-03-07 16:26:00,38.8,27.7,30.33,ESE,111,0.0,6.0,64,0.00,,CLR,0.01,VWS V14.01,2013-03-07 22:26:00,
2013-03-07 16:27:00,38.7,27.2,30.33,ESE,113,0.0,6.0,63,0.00,,CLR,0.01,VWS V14.01,2013-03-07 22:27:00,
2013-03-07 16:30:00,37.4,27.1,30.32,ENE,71,0.0,8.0,66,0.00,,OVC041,0.01,VWS V14.01,2013-03-07 22:30:00,
2013-03-07 16:31:00,38.5,27.4,30.32,NE,46,0.0,2.0,64,0.00,,CLR,0.01,VWS V14.01,2013-03-07 22:31:00,
2013-03-07 16:32:00,38.5,27.4,30.32,NE,46,0.0,2.0,64,0.00,,CLR,0.01,VWS V14.01,2013-03-07 22:32:00,
2013-03-07 16:36:00,38.5,27.4,30.32,ESE,111,0.0,5.0,64,0.00,,CLR,0.01,VWS V14.01,2013-03-07 22:36:00,
2013-03-07 16:37:00,38.5,27.4,30.32,East,83,1.0,5.0,64,0.00,,CLR,0.01,VWS V14.01,2013-03-07 22:37:00,
2013-03-07 16:41:00,38.2,26.7,30.32,SE,132,0.0,5.0,63,0.00,,CLR,0.01,VWS V14.01,2013-03-07 22:41:00,
2013-03-07 16:42:00,38.2,26.7,30.32,SE,126,0.0,5.0,63,0.00,,CLR,0.01,VWS V14.01,2013-03-07 22:42:00,
2013-03-07 16:46:00,38.2,27.1,30.32,ESE,115,0.0,5.0,64,0.00,,CLR,0.01,VWS V14.01,2013-03-07 22:46:00,
2013-03-07 16:47:00,38.2,27.1,30.32,SE,135,4.0,5.0,64,0.00,,CLR,0.01,VWS V14.01,2013-03-07 22:47:00,
2013-03-07 16:51:00,38.1,27.0,30.32,East,94,2.0,5.0,64,0.00,,CLR,0.01,VWS V14.01,2013-03-07 22:51:00,
2013-03-07 16:52:00,38.1,27.0,30.32,East,94,0.0,5.0,64,0.00,,CLR,0.01,VWS V14.01,2013-03-07 22:52:00,
2013-03-07 16:56:00,38.1,27.0,30.32,SE,132,1.0,5.0,64,0.00,,CLR,0.01,VWS V14.01,2013-03-07 22:56:00,
2013-03-07 16:57:00,38.1,27.0,30.32,SE,130,2.0,5.0,64,0.00,,CLR,0.01,VWS V14.01,2013-03-07 22:57:00,
2013-03-07 17:00:00,36.5,26.6,30.33,SE,126,0.0,6.0,67,0.00,,OVC041,0.01,VWS V14.01,2013-03-07 23:00:00,
2013-03-07 17:01:00,37.9,26.8,30.32,ESE,105,0.0,0.0,64,0.00,,CLR,0.01,VWS V14.01,2013-03-07 23:01:00,
2013-03-07 17:02:00,37.9,26.8,30.32,ESE,105,0.0,0.0,64,0.00,,CLR,0.01,VWS V14.01,2013-03-07 23:02:00,
2013-03-07 17:03:00,38.1,27.0,30.32,SE,128,4.0,7.0,64,0.00,,CLR,0.01,VWS V14.01,2013-03-07 23:03:00,
2013-03-07 17:06:00,38.1,27.4,30.32,SE,145,4.0,7.0,65,0.00,,CLR,0.01,VWS V14.01,2013-03-07 23:06:00,
2013-03-07 17:07:00,38.1,27.4,30.32,SE,145,2.0,7.0,65,0.00,,CLR,0.01,VWS V14.01,2013-03-07 23:07:00,
2013-03-07 17:08:00,38.1,27.4,30.32,ESE,115,2.0,7.0,65,0.00,,CLR,0.01,VWS V14.01,2013-03-07 23:08:00,
2013-03-07 17:11:00,38.1,27.4,30.32,SE,132,4.0,7.0,65,0.00,,CLR,0.01,VWS V14.01,2013-03-07 23:11:00,
2013-03-07 17:12:00,38.1,27.4,30.32,East,88,3.0,7.0,65,0.00,,CLR,0.01,VWS V14.01,2013-03-07 23:12:00,
2013-03-07 17:13:00,38.1,27.4,30.32,ESE,117,0.0,7.0,65,0.00,,CLR,0.01,VWS V14.01,2013-03-07 23:13:00,
2013-03-07 17:16:00,37.9,27.2,30.32,SE,127,4.0,8.0,65,0.00,,CLR,0.01,VWS V14.01,2013-03-07 23:16:00,
2013-03-07 17:17:00,37.9,27.2,30.32,SE,138,5.0,8.0,65,0.00,,CLR,0.01,VWS V14.01,2013-03-07 23:17:00,
2013-03-07 17:18:00,37.8,27.1,30.32,East,96,1.0,8.0,65,0.00,,CLR,0.01,VWS V14.01,2013-03-07 23:18:00,
2013-03-07 17:22:00,37.7,27.4,30.32,ESE,120,0.0,8.0,66,0.00,,CLR,0.01,VWS V14.01,2013-03-07 23:22:00,
2013-03-07 17:24:00,37.7,27.4,30.32,ESE,123,3.0,8.0,66,0.00,,CLR,0.01,VWS V14.01,2013-03-07 23:24:00,
2013-03-07 17:27:00,37.5,27.2,30.32,East,98,1.0,8.0,66,0.00,,CLR,0.01,VWS V14.01,2013-03-07 23:27:00,
2013-03-07 17:29:00,37.5,27.2,30.32,East,84,0.0,8.0,66,0.00,,CLR,0.01,VWS V14.01,2013-03-07 23:29:00,
2013-03-07 17:30:00,35.5,27.4,30.33,East,99,0.0,4.0,72,0.00,,OVC041,0.01,VWS V14.01,2013-03-07 23:30:00,
2013-03-07 17:32:00,37.4,27.1,30.32,ENE,76,0.0,4.0,66,0.00,,CLR,0.01,VWS V14.01,2013-03-07 23:32:00,
2013-03-07 17:34:00,37.4,27.1,30.32,East,85,0.0,4.0,66,0.00,,CLR,0.01,VWS V14.01,2013-03-07 23:34:00,
2013-03-07 17:37:00,37.4,27.1,30.32,East,86,0.0,4.0,66,0.00,,CLR,0.01,VWS V14.01,2013-03-07 23:37:00,
2013-03-07 17:39:00,37.4,27.1,30.32,East,86,0.0,4.0,66,0.00,,CLR,0.01,VWS V14.01,2013-03-07 23:39:00,
2013-03-07 17:42:00,37.2,27.3,30.32,East,86,0.0,4.0,67,0.00,,CLR,0.01,VWS V14.01,2013-03-07 23:42:00,
2013-03-07 17:44:00,37.1,27.2,30.33,East,92,0.0,4.0,67,0.00,,CLR,0.01,VWS V14.01,2013-03-07 23:44:00,
2013-03-07 17:47:00,36.9,26.6,30.33,East,97,0.0,4.0,66,0.00,,CLR,0.01,VWS V14.01,2013-03-07 23:47:00,
2013-03-07 17:48:00,36.9,26.6,30.33,East,98,0.0,4.0,66,0.00,,CLR,0.01,VWS V14.01,2013-03-07 23:48:00,
2013-03-07 17:49:00,36.9,26.6,30.33,ESE,117,0.0,4.0,66,0.00,,CLR,0.01,VWS V14.01,2013-03-07 23:49:00,
2013-03-07 17:52:00,36.8,26.5,30.33,SE,129,0.0,6.0,66,0.00,,CLR,0.01,VWS V14.01,2013-03-07 23:52:00,
2013-03-07 17:53:00,36.8,26.5,30.33,SE,129,0.0,6.0,66,0.00,,CLR,0.01,VWS V14.01,2013-03-07 23:53:00,
2013-03-07 17:54:00,36.8,26.5,30.33,SE,130,0.0,6.0,66,0.00,,CLR,0.01,VWS V14.01,2013-03-07 23:54:00,
2013-03-07 17:58:00,36.7,26.8,30.33,SE,130,0.0,6.0,67,0.00,,CLR,0.01,VWS V14.01,2013-03-07 23:58:00,
2013-03-07 17:59:00,36.7,26.8,30.33,SE,126,0.0,6.0,67,0.00,,CLR,0.01,VWS V14.01,2013-03-07 23:59:00,
2013-03-07 18:00:00,34.5,27.1,30.34,ESE,117,0.0,4.0,74,0.00,,OVC041,0.01,VWS V14.01,2013-03-08 00:00:00,
2013-03-07 18:03:00,36.5,26.6,30.33,ESE,122,0.0,0.0,67,0.00,,CLR,0.01,VWS V14.01,2013-03-08 00:03:00,
2013-03-07 18:04:00,36.4,26.9,30.33,ESE,118,0.0,0.0,68,0.00,,CLR,0.01,VWS V14.01,2013-03-08 00:04:00,
2013-03-07 18:08:00,36.4,26.9,30.33,ESE,116,0.0,0.0,68,0.00,,CLR,0.01,VWS V14.01,2013-03-08 00:08:00,
2013-03-07 18:09:00,36.2,26.7,30.33,ESE,116,0.0,0.0,68,0.00,,CLR,0.01,VWS V14.01,2013-03-08 00:09:00,
2013-03-07 18:13:00,36.1,26.9,30.33,SE,136,0.0,4.0,69,0.00,,CLR,0.01,VWS V14.01,2013-03-08 00:13:00,
2013-03-07 18:14:00,36.1,26.9,30.33,ESE,117,1.0,4.0,69,0.00,,CLR,0.01,VWS V14.01,2013-03-08 00:14:00,
2013-03-07 18:18:00,35.9,26.7,30.33,East,93,0.0,4.0,69,0.00,,CLR,0.01,VWS V14.01,2013-03-08 00:18:00,
2013-03-07 18:20:00,35.9,27.1,30.33,East,93,0.0,4.0,70,0.00,,CLR,0.01,VWS V14.01,2013-03-08 00:20:00,
2013-03-07 18:23:00,35.8,27.0,30.33,East,86,0.0,4.0,70,0.00,,CLR,0.01,VWS V14.01,2013-03-08 00:23:00,
2013-03-07 18:24:00,35.8,27.0,30.33,East,86,0.0,4.0,70,0.00,,CLR,0.01,VWS V14.01,2013-03-08 00:24:00,
2013-03-07 18:25:00,35.7,27.2,30.33,East,87,0.0,4.0,71,0.00,,CLR,0.01,VWS V14.01,2013-03-08 00:25:00,
2013-03-07 18:29:00,35.5,27.0,30.33,ESE,104,0.0,4.0,71,0.00,,CLR,0.01,VWS V14.01,2013-03-08 00:29:00,
2013-03-07 18:30:00,35.5,27.4,30.33,East,94,3.0,3.0,72,0.00,,CLR,0.01,VWS V14.01,2013-03-08 00:30:00,
2013-03-07 18:34:00,35.4,27.3,30.33,East,82,0.0,4.0,72,0.00,,CLR,0.01,VWS V14.01,2013-03-08 00:34:00,
2013-03-07 18:35:00,35.4,27.3,30.33,East,82,0.0,4.0,72,0.00,,CLR,0.01,VWS V14.01,2013-03-08 00:35:00,
2013-03-07 18:39:00,35.2,27.4,30.33,East,95,0.0,4.0,73,0.00,,CLR,0.01,VWS V14.01,2013-03-08 00:39:00,
2013-03-07 18:40:00,35.1,27.3,30.33,East,95,0.0,4.0,73,0.00,,CLR,0.01,VWS V14.01,2013-03-08 00:40:00,
2013-03-07 18:44:00,34.9,27.1,30.33,East,95,0.0,4.0,73,0.00,,CLR,0.01,VWS V14.01,2013-03-08 00:44:00,
2013-03-07 18:45:00,34.9,27.1,30.33,East,95,0.0,4.0,73,0.00,,CLR,0.01,VWS V14.01,2013-03-08 00:45:00,
2013-03-07 18:49:00,34.8,27.0,30.33,ENE,78,0.0,4.0,73,0.00,,CLR,0.01,VWS V14.01,2013-03-08 00:49:00,
2013-03-07 18:50:00,34.8,27.0,30.33,ENE,78,0.0,4.0,73,0.00,,CLR,0.01,VWS V14.01,2013-03-08 00:50:00,
2013-03-07 18:51:00,34.6,26.9,30.33,East,79,0.0,4.0,73,0.00,,CLR,0.01,VWS V14.01,2013-03-08 00:51:00,
2013-03-07 18:54:00,34.6,27.2,30.33,East,79,0.0,4.0,74,0.00,,CLR,0.01,VWS V14.01,2013-03-08 00:54:00,
2013-03-07 18:55:00,34.6,27.2,30.33,East,79,0.0,4.0,74,0.00,,CLR,0.01,VWS V14.01,2013-03-08 00:55:00,
2013-03-07 18:56:00,34.5,27.1,30.33,East,79,0.0,4.0,74,0.00,,CLR,0.01,VWS V14.01,2013-03-08 00:56:00,
2013-03-07 19:00:00,34.5,27.1,30.34,ESE,117,0.0,4.0,74,0.00,,CLR,0.01,VWS V14.01,2013-03-08 01:00:00,
2013-03-07 19:01:00,34.3,26.9,30.34,ESE,117,0.0,0.0,74,0.00,,CLR,0.01,VWS V14.01,2013-03-08 01:01:00,
2013-03-07 19:05:00,34.3,26.9,30.34,ESE,119,0.0,1.0,74,0.00,,CLR,0.01,VWS V14.01,2013-03-08 01:05:00,
2013-03-07 19:06:00,34.3,26.9,30.34,ESE,120,0.0,1.0,74,0.00,,CLR,0.01,VWS V14.01,2013-03-08 01:06:00,
2013-03-07 19:10:00,34.2,27.1,30.34,ESE,120,0.0,1.0,75,0.00,,CLR,0.01,VWS V14.01,2013-03-08 01:10:00,
2013-03-07 19:11:00,34.2,27.1,30.34,ESE,116,0.0,1.0,75,0.00,,CLR,0.01,VWS V14.01,2013-03-08 01:11:00,
2013-03-07 19:15:00,34.0,26.9,30.34,ESE,115,0.0,1.0,75,0.00,,CLR,0.01,VWS V14.01,2013-03-08 01:15:00,
2013-03-07 19:16:00,34.0,26.9,30.34,ESE,115,0.0,1.0,75,0.00,,CLR,0.01,VWS V14.01,2013-03-08 01:16:00,
2013-03-07 19:20:00,33.9,26.8,30.34,ESE,115,0.0,1.0,75,0.00,,CLR,0.01,VWS V14.01,2013-03-08 01:20:00,
2013-03-07 19:21:00,33.9,26.8,30.34,ESE,115,0.0,1.0,75,0.00,,CLR,0.01,VWS V14.01,2013-03-08 01:21:00,
2013-03-07 19:25:00,33.7,27.0,30.34,ESE,115,0.0,1.0,76,0.00,,CLR,0.01,VWS V14.01,2013-03-08 01:25:00,
2013-03-07 19:26:00,33.7,27.0,30.34,ESE,115,0.0,1.0,76,0.00,,CLR,0.01,VWS V14.01,2013-03-08 01:26:00,
2013-03-07 19:30:00,33.6,26.9,30.34,ESE,106,0.0,0.0,76,0.00,,CLR,0.01,VWS V14.01,2013-03-08 01:30:00,
2013-03-07 19:31:00,33.6,26.9,30.34,ESE,106,0.0,0.0,76,0.00,,CLR,0.01,VWS V14.01,2013-03-08 01:31:00,
2013-03-07 19:35:00,33.4,27.0,30.34,ESE,107,0.0,0.0,77,0.00,,CLR,0.01,VWS V14.01,2013-03-08 01:35:00,
2013-03-07 19:36:00,33.4,27.0,30.34,ESE,107,0.0,0.0,77,0.00,,CLR,0.01,VWS V14.01,2013-03-08 01:36:00,
2013-03-07 19:40:00,33.3,26.9,30.34,ESE,104,0.0,0.0,77,0.00,,CLR,0.01,VWS V14.01,2013-03-08 01:40:00,
2013-03-07 19:41:00,33.3,26.9,30.34,ESE,104,0.0,0.0,77,0.00,,CLR,0.01,VWS V14.01,2013-03-08 01:41:00,
2013-03-07 19:46:00,33.1,26.7,30.34,East,85,0.0,1.0,77,0.00,,CLR,0.01,VWS V14.01,2013-03-08 01:46:00,
2013-03-07 19:47:00,33.1,26.7,30.34,East,85,0.0,1.0,77,0.00,,CLR,0.01,VWS V14.01,2013-03-08 01:47:00,
2013-03-07 19:51:00,33.0,26.6,30.34,East,85,0.0,1.0,77,0.00,,CLR,0.01,VWS V14.01,2013-03-08 01:51:00,
2013-03-07 19:52:00,33.0,26.6,30.34,East,89,0.0,3.0,77,0.00,,CLR,0.01,VWS V14.01,2013-03-08 01:52:00,
2013-03-07 19:56:00,33.0,26.6,30.34,East,90,0.0,3.0,77,0.00,,CLR,0.01,VWS V14.01,2013-03-08 01:56:00,
2013-03-07 19:57:00,33.0,26.6,30.34,ESE,116,0.0,5.0,77,0.00,,CLR,0.01,VWS V14.01,2013-03-08 01:57:00,
2013-03-07 20:00:00,31.8,25.7,30.34,ESE,121,0.0,6.0,78,0.00,,OVC041,0.01,VWS V14.01,2013-03-08 02:00:00,
2013-03-07 20:01:00,33.0,26.6,30.33,ESE,116,0.0,0.0,77,0.00,,CLR,0.01,VWS V14.01,2013-03-08 02:01:00,
2013-03-07 20:03:00,33.0,26.6,30.33,ESE,123,0.0,1.0,77,0.00,,CLR,0.01,VWS V14.01,2013-03-08 02:03:00,
2013-03-07 20:06:00,32.8,26.4,30.33,East,98,1.0,1.0,77,0.00,,CLR,0.01,VWS V14.01,2013-03-08 02:06:00,
2013-03-07 20:08:00,32.8,26.4,30.33,ESE,116,0.0,3.0,77,0.00,,CLR,0.01,VWS V14.01,2013-03-08 02:08:00,
2013-03-07 20:11:00,32.7,26.3,30.33,SE,140,0.0,4.0,77,0.00,,CLR,0.01,VWS V14.01,2013-03-08 02:11:00,
2013-03-07 20:13:00,32.7,26.3,30.33,SE,140,0.0,4.0,77,0.00,,CLR,0.01,VWS V14.01,2013-03-08 02:13:00,
2013-03-07 20:16:00,32.7,26.3,30.33,SE,124,0.0,4.0,77,0.00,,CLR,0.01,VWS V14.01,2013-03-08 02:16:00,
2013-03-07 20:18:00,32.7,26.3,30.33,SE,136,3.0,4.0,77,0.00,,CLR,0.01,VWS V14.01,2013-03-08 02:18:00,
2013-03-07 20:21:00,32.7,26.3,30.33,ESE,122,0.0,7.0,77,0.00,,CLR,0.01,VWS V14.01,2013-03-08 02:21:00,
2013-03-07 20:22:00,32.7,26.3,30.33,ESE,122,0.0,7.0,77,0.00,,CLR,0.01,VWS V14.01,2013-03-08 02:22:00,
2013-03-07 20:23:00,32.7,26.3,30.33,SE,133,0.0,7.0,77,0.00,,CLR,0.01,VWS V14.01,2013-03-08 02:23:00,
2013-03-07 20:26:00,32.6,26.2,30.33,SE,134,0.0,7.0,77,0.00,,CLR,0.01,VWS V14.01,2013-03-08 02:26:00,
2013-03-07 20:27:00,32.6,26.2,30.33,SE,128,0.0,7.0,77,0.00,,CLR,0.01,VWS V14.01,2013-03-08 02:27:00,
2013-03-07 20:29:00,32.6,26.2,30.33,ESE,123,5.0,7.0,77,0.00,,CLR,0.01,VWS V14.01,2013-03-08 02:29:00,
2013-03-07 20:30:00,31.2,25.5,30.34,ESE,113,0.0,4.0,79,0.00,,OVC041,0.01,VWS V14.01,2013-03-08 02:30:00,
2013-03-07 20:31:00,32.4,26.0,30.33,SE,133,0.0,5.0,77,0.00,,CLR,0.01,VWS V14.01,2013-03-08 02:31:00,
2013-03-07 20:32:00,32.4,26.0,30.33,SE,133,0.0,5.0,77,0.00,,CLR,0.01,VWS V14.01,2013-03-08 02:32:00,
2013-03-07 20:34:00,32.4,26.0,30.33,ESE,118,0.0,6.0,77,0.00,,CLR,0.01,VWS V14.01,2013-03-08 02:34:00,
2013-03-07 20:36:00,32.4,26.0,30.33,SE,140,3.0,6.0,77,0.00,,CLR,0.01,VWS V14.01,2013-03-08 02:36:00,
2013-03-07 20:37:00,32.4,26.0,30.33,SE,130,0.0,6.0,77,0.00,,CLR,0.01,VWS V14.01,2013-03-08 02:37:00,
2013-03-07 20:38:00,32.3,25.9,30.33,SE,128,0.0,6.0,77,0.00,,CLR,0.01,VWS V14.01,2013-03-08 02:38:00,
2013-03-07 20:41:00,32.3,25.9,30.33,ESE,108,0.0,6.0,77,0.00,,CLR,0.01,VWS V14.01,2013-03-08 02:41:00,
2013-03-07 20:42:00,32.3,25.9,30.33,ESE,108,0.0,6.0,77,0.00,,CLR,0.01,VWS V14.01,2013-03-08 02:42:00,
2013-03-07 20:43:00,32.1,25.7,30.33,ESE,117,0.0,6.0,77,0.00,,CLR,0.01,VWS V14.01,2013-03-08 02:43:00,
2013-03-07 20:46:00,32.1,25.7,30.33,SE,126,0.0,6.0,77,0.00,,CLR,0.01,VWS V14.01,2013-03-08 02:46:00,
2013-03-07 20:47:00,32.1,25.7,30.33,SE,126,0.0,6.0,77,0.00,,CLR,0.01,VWS V14.01,2013-03-08 02:47:00,
2013-03-07 20:49:00,32.1,25.7,30.33,ESE,122,0.0,6.0,77,0.00,,CLR,0.01,VWS V14.01,2013-03-08 02:49:00,
2013-03-07 20:51:00,32.0,25.6,30.33,ESE,121,0.0,6.0,77,0.00,,CLR,0.01,VWS V14.01,2013-03-08 02:51:00,
2013-03-07 20:52:00,32.0,25.6,30.33,ESE,121,0.0,6.0,77,0.00,,CLR,0.01,VWS V14.01,2013-03-08 02:52:00,
2013-03-07 20:54:00,32.0,25.9,30.33,ESE,121,0.0,6.0,78,0.00,,CLR,0.01,VWS V14.01,2013-03-08 02:54:00,
2013-03-07 20:57:00,31.8,25.7,30.33,ESE,121,0.0,6.0,78,0.00,,CLR,0.01,VWS V14.01,2013-03-08 02:57:00,
2013-03-07 20:59:00,31.8,25.7,30.34,ESE,121,0.0,6.0,78,0.00,,CLR,0.01,VWS V14.01,2013-03-08 02:59:00,
2013-03-07 21:00:00,30.6,25.2,30.34,East,98,0.0,1.0,80,0.00,,OVC041,0.01,VWS V14.01,2013-03-08 03:00:00,
2013-03-07 21:02:00,31.7,25.6,30.34,SE,124,0.0,2.0,78,0.00,,CLR,0.01,VWS V14.01,2013-03-08 03:02:00,
2013-03-07 21:04:00,31.7,25.6,30.34,SE,124,0.0,2.0,78,0.00,,CLR,0.01,VWS V14.01,2013-03-08 03:04:00,
2013-03-07 21:07:00,31.5,25.4,30.34,SE,124,0.0,2.0,78,0.00,,CLR,0.01,VWS V14.01,2013-03-08 03:07:00,
2013-03-07 21:09:00,31.5,25.4,30.34,ESE,123,0.0,2.0,78,0.00,,CLR,0.01,VWS V14.01,2013-03-08 03:09:00,
2013-03-07 21:12:00,31.5,25.8,30.34,ESE,123,0.0,2.0,79,0.00,,CLR,0.01,VWS V14.01,2013-03-08 03:12:00,
2013-03-07 21:14:00,31.5,25.8,30.34,ESE,109,0.0,4.0,79,0.00,,CLR,0.01,VWS V14.01,2013-03-08 03:14:00,
2013-03-07 21:17:00,31.4,25.6,30.34,ESE,109,0.0,4.0,79,0.00,,CLR,0.01,VWS V14.01,2013-03-08 03:17:00,
2013-03-07 21:19:00,31.4,25.6,30.34,ESE,109,0.0,4.0,79,0.00,,CLR,0.01,VWS V14.01,2013-03-08 03:19:00,
2013-03-07 21:22:00,31.4,25.6,30.34,ESE,111,0.0,4.0,79,0.00,,CLR,0.01,VWS V14.01,2013-03-08 03:22:00,
2013-03-07 21:24:00,31.2,25.5,30.34,ESE,111,0.0,4.0,79,0.00,,CLR,0.01,VWS V14.01,2013-03-08 03:24:00,
2013-03-07 21:27:00,31.2,25.5,30.34,ESE,111,0.0,4.0,79,0.00,,CLR,0.01,VWS V14.01,2013-03-08 03:27:00,
2013-03-07 21:28:00,31.2,25.5,30.34,ESE,112,2.0,4.0,79,0.00,,CLR,0.01,VWS V14.01,2013-03-08 03:28:00,
2013-03-07 21:29:00,31.2,25.5,30.34,ESE,113,0.0,4.0,79,0.00,,CLR,0.01,VWS V14.01,2013-03-08 03:29:00,
2013-03-07 21:30:00,30.3,25.2,30.34,East,79,0.0,3.0,81,0.00,,OVC041,0.01,VWS V14.01,2013-03-08 03:30:00,
2013-03-07 21:33:00,31.2,25.8,30.34,ESE,121,0.0,1.0,80,0.00,,CLR,0.01,VWS V14.01,2013-03-08 03:33:00,
2013-03-07 21:34:00,31.2,25.5,30.34,ESE,111,0.0,1.0,79,0.00,,CLR,0.01,VWS V14.01,2013-03-08 03:34:00,
2013-03-07 21:38:00,31.1,25.7,30.34,ESE,112,0.0,1.0,80,0.00,,CLR,0.01,VWS V14.01,2013-03-08 03:38:00,
2013-03-07 21:39:00,31.1,25.7,30.34,ESE,112,0.0,1.0,80,0.00,,CLR,0.01,VWS V14.01,2013-03-08 03:39:00,
2013-03-07 21:44:00,30.9,25.5,30.34,ESE,112,0.0,1.0,80,0.00,,CLR,0.01,VWS V14.01,2013-03-08 03:44:00,
2013-03-07 21:45:00,30.9,25.5,30.34,ESE,112,0.0,1.0,80,0.00,,CLR,0.01,VWS V14.01,2013-03-08 03:45:00,
2013-03-07 21:49:00,30.9,25.5,30.34,ESE,109,0.0,1.0,80,0.00,,CLR,0.01,VWS V14.01,2013-03-08 03:49:00,
2013-03-07 21:50:00,30.9,25.5,30.34,ESE,109,0.0,1.0,80,0.00,,CLR,0.01,VWS V14.01,2013-03-08 03:50:00,
2013-03-07 21:54:00,30.8,25.4,30.34,East,98,0.0,1.0,80,0.00,,CLR,0.01,VWS V14.01,2013-03-08 03:54:00,
2013-03-07 21:55:00,30.8,25.4,30.34,East,98,0.0,1.0,80,0.00,,CLR,0.01,VWS V14.01,2013-03-08 03:55:00,
2013-03-07 21:59:00,30.6,25.2,30.34,East,98,0.0,1.0,80,0.00,,CLR,0.01,VWS V14.01,2013-03-08 03:59:00,
2013-03-07 22:00:00,30.6,25.2,30.34,East,98,0.0,1.0,80,0.00,,CLR,0.01,VWS V14.01,2013-03-08 04:00:00,
2013-03-07 22:04:00,30.6,25.5,30.34,East,79,0.0,3.0,81,0.00,,CLR,0.01,VWS V14.01,2013-03-08 04:04:00,
2013-03-07 22:05:00,30.6,25.5,30.34,East,79,0.0,3.0,81,0.00,,CLR,0.01,VWS V14.01,2013-03-08 04:05:00,
2013-03-07 22:09:00,30.6,25.5,30.34,East,79,0.0,3.0,81,0.00,,CLR,0.01,VWS V14.01,2013-03-08 04:09:00,
2013-03-07 22:10:00,30.6,25.5,30.34,East,79,0.0,3.0,81,0.00,,CLR,0.01,VWS V14.01,2013-03-08 04:10:00,
2013-03-07 22:14:00,30.5,25.4,30.34,East,79,0.0,3.0,81,0.00,,CLR,0.01,VWS V14.01,2013-03-08 04:14:00,
2013-03-07 22:15:00,30.5,25.4,30.34,East,79,0.0,3.0,81,0.00,,CLR,0.01,VWS V14.01,2013-03-08 04:15:00,
2013-03-07 22:19:00,30.3,25.2,30.34,East,79,0.0,3.0,81,0.00,,CLR,0.01,VWS V14.01,2013-03-08 04:19:00,
2013-03-07 22:20:00,30.3,25.2,30.34,East,79,0.0,3.0,81,0.00,,CLR,0.01,VWS V14.01,2013-03-08 04:20:00,
2013-03-07 22:24:00,30.3,25.2,30.34,East,79,0.0,3.0,81,0.00,,CLR,0.01,VWS V14.01,2013-03-08 04:24:00,
2013-03-07 22:25:00,30.3,25.2,30.34,East,79,0.0,3.0,81,0.00,,CLR,0.01,VWS V14.01,2013-03-08 04:25:00,
2013-03-07 22:29:00,30.3,25.2,30.34,East,79,0.0,3.0,81,0.00,,CLR,0.01,VWS V14.01,2013-03-08 04:29:00,
2013-03-07 22:30:00,30.3,25.2,30.34,East,80,0.0,0.0,81,0.00,,CLR,0.01,VWS V14.01,2013-03-08 04:30:00,
2013-03-07 22:34:00,30.3,25.2,30.34,East,80,0.0,0.0,81,0.00,,CLR,0.01,VWS V14.01,2013-03-08 04:34:00,
2013-03-07 22:35:00,30.2,25.1,30.34,East,80,0.0,0.0,81,0.00,,CLR,0.01,VWS V14.01,2013-03-08 04:35:00,
2013-03-07 22:40:00,30.2,25.1,30.34,East,80,0.0,1.0,81,0.00,,CLR,0.01,VWS V14.01,2013-03-08 04:40:00,
2013-03-07 22:45:00,30.2,25.1,30.34,ESE,102,0.0,3.0,81,0.00,,CLR,0.01,VWS V14.01,2013-03-08 04:45:00,
2013-03-07 22:50:00,30.2,25.1,30.34,ESE,102,0.0,3.0,81,0.00,,CLR,0.01,VWS V14.01,2013-03-08 04:50:00,
2013-03-07 22:55:00,30.2,25.1,30.34,ESE,102,0.0,3.0,81,0.00,,CLR,0.01,VWS V14.01,2013-03-08 04:55:00,
2013-03-07 22:56:00,30.0,24.9,30.34,ESE,102,0.0,3.0,81,0.00,,CLR,0.01,VWS V14.01,2013-03-08 04:56:00,
2013-03-07 23:00:00,30.0,24.9,30.34,ESE,103,0.0,3.0,81,0.00,,CLR,0.01,VWS V14.01,2013-03-08 05:00:00,
2013-03-07 23:02:00,29.9,24.8,30.34,ESE,103,0.0,0.0,81,0.00,,CLR,0.01,VWS V14.01,2013-03-08 05:02:00,
2013-03-07 23:05:00,29.9,25.1,30.34,ESE,103,0.0,0.0,82,0.00,,CLR,0.01,VWS V14.01,2013-03-08 05:05:00,
2013-03-07 23:07:00,29.9,25.1,30.34,ESE,103,0.0,0.0,82,0.00,,CLR,0.01,VWS V14.01,2013-03-08 05:07:00,
2013-03-07 23:10:00,29.9,25.1,30.34,ESE,104,0.0,0.0,82,0.00,,CLR,0.01,VWS V14.01,2013-03-08 05:10:00,
2013-03-07 23:12:00,29.9,25.1,30.34,ESE,104,0.0,0.0,82,0.00,,CLR,0.01,VWS V14.01,2013-03-08 05:12:00,
2013-03-07 23:15:00,30.0,25.2,30.34,ESE,104,0.0,0.0,82,0.00,,CLR,0.01,VWS V14.01,2013-03-08 05:15:00,
2013-03-07 23:17:00,30.0,25.2,30.34,ESE,105,0.0,0.0,82,0.00,,CLR,0.01,VWS V14.01,2013-03-08 05:17:00,
2013-03-07 23:20:00,30.0,25.2,30.34,ESE,105,0.0,1.0,82,0.00,,CLR,0.01,VWS V14.01,2013-03-08 05:20:00,
2013-03-07 23:22:00,30.0,25.2,30.34,ESE,109,2.0,2.0,82,0.00,,CLR,0.01,VWS V14.01,2013-03-08 05:22:00,
2013-03-07 23:25:00,30.0,25.2,30.34,ESE,109,0.0,2.0,82,0.00,,CLR,0.01,VWS V14.01,2013-03-08 05:25:00,
2013-03-07 23:26:00,30.0,25.2,30.34,ESE,102,0.0,2.0,82,0.00,,CLR,0.01,VWS V14.01,2013-03-08 05:26:00,
2013-03-07 23:27:00,30.0,25.2,30.34,ESE,103,0.0,2.0,82,0.00,,CLR,0.01,VWS V14.01,2013-03-08 05:27:00,
2013-03-07 23:30:00,30.0,25.2,30.35,ESE,121,0.0,2.0,82,0.00,,CLR,0.01,VWS V14.01,2013-03-08 05:30:00,
2013-03-07 23:31:00,30.0,25.2,30.35,ESE,121,0.0,2.0,82,0.00,,CLR,0.01,VWS V14.01,2013-03-08 05:31:00,
2013-03-07 23:32:00,30.0,25.2,30.35,ESE,121,0.0,2.0,82,0.00,,CLR,0.01,VWS V14.01,2013-03-08 05:32:00,
2013-03-07 23:35:00,30.0,25.2,30.35,SE,130,0.0,3.0,82,0.00,,CLR,0.01,VWS V14.01,2013-03-08 05:35:00,
2013-03-07 23:36:00,30.0,25.2,30.35,SE,126,0.0,3.0,82,0.00,,CLR,0.01,VWS V14.01,2013-03-08 05:36:00,
2013-03-07 23:38:00,30.0,25.2,30.35,East,96,0.0,3.0,82,0.00,,CLR,0.01,VWS V14.01,2013-03-08 05:38:00,
2013-03-07 23:41:00,29.9,25.1,30.35,East,86,0.0,3.0,82,0.00,,CLR,0.01,VWS V14.01,2013-03-08 05:41:00,
2013-03-07 23:42:00,29.9,25.1,30.35,East,88,0.0,3.0,82,0.00,,CLR,0.01,VWS V14.01,2013-03-08 05:42:00,
2013-03-07 23:43:00,30.0,25.2,30.35,East,98,2.0,3.0,82,0.00,,CLR,0.01,VWS V14.01,2013-03-08 05:43:00,
2013-03-07 23:46:00,30.0,25.2,30.34,East,96,0.0,3.0,82,0.00,,CLR,0.01,VWS V14.01,2013-03-08 05:46:00,
2013-03-07 23:47:00,29.9,25.1,30.34,East,96,0.0,3.0,82,0.00,,CLR,0.01,VWS V14.01,2013-03-08 05:47:00,
2013-03-07 23:48:00,29.9,25.1,30.34,SE,125,0.0,3.0,82,0.00,,CLR,0.01,VWS V14.01,2013-03-08 05:48:00,
2013-03-07 23:51:00,29.9,25.1,30.34,ESE,121,0.0,4.0,82,0.00,,CLR,0.01,VWS V14.01,2013-03-08 05:51:00,
2013-03-07 23:52:00,29.9,25.1,30.34,SE,138,0.0,4.0,82,0.00,,CLR,0.01,VWS V14.01,2013-03-08 05:52:00,
2013-03-07 23:53:00,29.9,25.1,30.34,SE,138,0.0,4.0,82,0.00,,CLR,0.01,VWS V14.01,2013-03-08 05:53:00,
2013-03-07 23:56:00,29.9,25.1,30.34,East,90,0.0,4.0,82,0.00,,CLR,0.01,VWS V14.01,2013-03-08 05:56:00,
2013-03-07 23:58:00,29.9,25.1,30.34,East,92,0.0,4.0,82,0.00,,CLR,0.01,VWS V14.01,2013-03-08 05:58:00,